<?xml version="1.0" encoding="UTF-8" standalone="no" ?>
<gpx xmlns="http://www.topografix.com/GPX/1/1" xmlns:xsi="http://www.w3.org/2001/XMLSchema-instance" xsi:schemaLocation="http://www.topografix.com/GPX/1/1 http://www.topografix.com/GPX/1/1/gpx.xsd" version="1.1" creator="VisuGPX - https://www.visugpx.com">
  <metadata>
    <name>Sainte Victoire </name>
    <desc><![CDATA[grp_trc:[nouvelles]]]></desc>
  </metadata>
  <trk>
    <name><![CDATA[6 août 2022 à 09:18:51]]></name>
    <cmt><![CDATA[6 août 2022 à 09:18:51]]></cmt>
    <trkseg>
      <trkpt lat="45.47217" lon="6.41405">
        <ele>1381</ele>
        <time>2022-08-06T07:18:52Z</time>
      </trkpt>
      <trkpt lat="45.47227" lon="6.41414">
        <ele>1380</ele>
        <time>2022-08-06T07:19:00Z</time>
      </trkpt>
      <trkpt lat="45.47245" lon="6.41435">
        <ele>1379</ele>
        <time>2022-08-06T07:19:18Z</time>
      </trkpt>
      <trkpt lat="45.4725" lon="6.41435">
        <ele>1378</ele>
        <time>2022-08-06T07:19:21Z</time>
      </trkpt>
      <trkpt lat="45.47264" lon="6.41442">
        <ele>1377</ele>
        <time>2022-08-06T07:19:34Z</time>
      </trkpt>
      <trkpt lat="45.47272" lon="6.41436">
        <ele>1378</ele>
        <time>2022-08-06T07:19:56Z</time>
      </trkpt>
      <trkpt lat="45.47279" lon="6.4144">
        <ele>1378</ele>
        <time>2022-08-06T07:21:07Z</time>
      </trkpt>
      <trkpt lat="45.47264" lon="6.41429">
        <ele>1377</ele>
        <time>2022-08-06T07:22:42Z</time>
      </trkpt>
      <trkpt lat="45.47265" lon="6.41432">
        <ele>1376</ele>
        <time>2022-08-06T07:23:26Z</time>
      </trkpt>
      <trkpt lat="45.47269" lon="6.41437">
        <ele>1376</ele>
        <time>2022-08-06T07:23:28Z</time>
      </trkpt>
      <trkpt lat="45.47265" lon="6.41439">
        <ele>1373</ele>
        <time>2022-08-06T07:27:45Z</time>
      </trkpt>
      <trkpt lat="45.47265" lon="6.41446">
        <ele>1372</ele>
        <time>2022-08-06T07:27:50Z</time>
      </trkpt>
      <trkpt lat="45.47279" lon="6.41461">
        <ele>1370</ele>
        <time>2022-08-06T07:28:09Z</time>
      </trkpt>
      <trkpt lat="45.47302" lon="6.41476">
        <ele>1367</ele>
        <time>2022-08-06T07:28:31Z</time>
      </trkpt>
      <trkpt lat="45.47311" lon="6.41484">
        <ele>1366</ele>
        <time>2022-08-06T07:28:41Z</time>
      </trkpt>
      <trkpt lat="45.4732" lon="6.41489">
        <ele>1365</ele>
        <time>2022-08-06T07:28:51Z</time>
      </trkpt>
      <trkpt lat="45.47325" lon="6.41488">
        <ele>1364</ele>
        <time>2022-08-06T07:29:04Z</time>
      </trkpt>
      <trkpt lat="45.4733" lon="6.41486">
        <ele>1364</ele>
        <time>2022-08-06T07:29:10Z</time>
      </trkpt>
      <trkpt lat="45.47335" lon="6.41483">
        <ele>1364</ele>
        <time>2022-08-06T07:29:28Z</time>
      </trkpt>
      <trkpt lat="45.47339" lon="6.4148">
        <ele>1364</ele>
        <time>2022-08-06T07:29:32Z</time>
      </trkpt>
      <trkpt lat="45.47343" lon="6.4148">
        <ele>1364</ele>
        <time>2022-08-06T07:29:36Z</time>
      </trkpt>
      <trkpt lat="45.47347" lon="6.41482">
        <ele>1364</ele>
        <time>2022-08-06T07:29:40Z</time>
      </trkpt>
      <trkpt lat="45.4735" lon="6.41486">
        <ele>1365</ele>
        <time>2022-08-06T07:29:44Z</time>
      </trkpt>
      <trkpt lat="45.4737" lon="6.41527">
        <ele>1366</ele>
        <time>2022-08-06T07:30:18Z</time>
      </trkpt>
      <trkpt lat="45.47385" lon="6.41547">
        <ele>1367</ele>
        <time>2022-08-06T07:30:39Z</time>
      </trkpt>
      <trkpt lat="45.47387" lon="6.41553">
        <ele>1367</ele>
        <time>2022-08-06T07:30:43Z</time>
      </trkpt>
      <trkpt lat="45.47415" lon="6.41588">
        <ele>1370</ele>
        <time>2022-08-06T07:31:16Z</time>
      </trkpt>
      <trkpt lat="45.47424" lon="6.41602">
        <ele>1371</ele>
        <time>2022-08-06T07:31:28Z</time>
      </trkpt>
      <trkpt lat="45.4743" lon="6.41607">
        <ele>1371</ele>
        <time>2022-08-06T07:31:35Z</time>
      </trkpt>
      <trkpt lat="45.47444" lon="6.41623">
        <ele>1372</ele>
        <time>2022-08-06T07:31:51Z</time>
      </trkpt>
      <trkpt lat="45.47449" lon="6.41626">
        <ele>1373</ele>
        <time>2022-08-06T07:31:55Z</time>
      </trkpt>
      <trkpt lat="45.47452" lon="6.41631">
        <ele>1373</ele>
        <time>2022-08-06T07:31:59Z</time>
      </trkpt>
      <trkpt lat="45.47475" lon="6.41636">
        <ele>1374</ele>
        <time>2022-08-06T07:32:19Z</time>
      </trkpt>
      <trkpt lat="45.47492" lon="6.41629">
        <ele>1376</ele>
        <time>2022-08-06T07:32:36Z</time>
      </trkpt>
      <trkpt lat="45.47499" lon="6.4162">
        <ele>1376</ele>
        <time>2022-08-06T07:32:44Z</time>
      </trkpt>
      <trkpt lat="45.47504" lon="6.41609">
        <ele>1377</ele>
        <time>2022-08-06T07:32:51Z</time>
      </trkpt>
      <trkpt lat="45.47515" lon="6.41563">
        <ele>1379</ele>
        <time>2022-08-06T07:33:19Z</time>
      </trkpt>
      <trkpt lat="45.4752" lon="6.41512">
        <ele>1381</ele>
        <time>2022-08-06T07:33:52Z</time>
      </trkpt>
      <trkpt lat="45.47523" lon="6.41507">
        <ele>1381</ele>
        <time>2022-08-06T07:33:59Z</time>
      </trkpt>
      <trkpt lat="45.47525" lon="6.41481">
        <ele>1382</ele>
        <time>2022-08-06T07:34:15Z</time>
      </trkpt>
      <trkpt lat="45.47532" lon="6.4144">
        <ele>1384</ele>
        <time>2022-08-06T07:34:40Z</time>
      </trkpt>
      <trkpt lat="45.47535" lon="6.41435">
        <ele>1384</ele>
        <time>2022-08-06T07:34:44Z</time>
      </trkpt>
      <trkpt lat="45.4754" lon="6.41416">
        <ele>1385</ele>
        <time>2022-08-06T07:34:56Z</time>
      </trkpt>
      <trkpt lat="45.47547" lon="6.414">
        <ele>1386</ele>
        <time>2022-08-06T07:35:08Z</time>
      </trkpt>
      <trkpt lat="45.47558" lon="6.41386">
        <ele>1387</ele>
        <time>2022-08-06T07:35:21Z</time>
      </trkpt>
      <trkpt lat="45.4758" lon="6.41362">
        <ele>1389</ele>
        <time>2022-08-06T07:35:45Z</time>
      </trkpt>
      <trkpt lat="45.47587" lon="6.41337">
        <ele>1390</ele>
        <time>2022-08-06T07:36:01Z</time>
      </trkpt>
      <trkpt lat="45.47588" lon="6.41332">
        <ele>1390</ele>
        <time>2022-08-06T07:36:09Z</time>
      </trkpt>
      <trkpt lat="45.47583" lon="6.41328">
        <ele>1392</ele>
        <time>2022-08-06T07:36:19Z</time>
      </trkpt>
      <trkpt lat="45.47576" lon="6.41318">
        <ele>1397</ele>
        <time>2022-08-06T07:36:44Z</time>
      </trkpt>
      <trkpt lat="45.47571" lon="6.41315">
        <ele>1399</ele>
        <time>2022-08-06T07:36:59Z</time>
      </trkpt>
      <trkpt lat="45.47571" lon="6.41308">
        <ele>1400</ele>
        <time>2022-08-06T07:37:10Z</time>
      </trkpt>
      <trkpt lat="45.47574" lon="6.41304">
        <ele>1401</ele>
        <time>2022-08-06T07:37:15Z</time>
      </trkpt>
      <trkpt lat="45.47579" lon="6.41292">
        <ele>1402</ele>
        <time>2022-08-06T07:37:27Z</time>
      </trkpt>
      <trkpt lat="45.47586" lon="6.41266">
        <ele>1404</ele>
        <time>2022-08-06T07:37:50Z</time>
      </trkpt>
      <trkpt lat="45.47601" lon="6.41233">
        <ele>1407</ele>
        <time>2022-08-06T07:38:22Z</time>
      </trkpt>
      <trkpt lat="45.47621" lon="6.412">
        <ele>1410</ele>
        <time>2022-08-06T07:38:54Z</time>
      </trkpt>
      <trkpt lat="45.47642" lon="6.41175">
        <ele>1413</ele>
        <time>2022-08-06T07:39:25Z</time>
      </trkpt>
      <trkpt lat="45.47648" lon="6.4116">
        <ele>1414</ele>
        <time>2022-08-06T07:39:37Z</time>
      </trkpt>
      <trkpt lat="45.4765" lon="6.41154">
        <ele>1414</ele>
        <time>2022-08-06T07:39:44Z</time>
      </trkpt>
      <trkpt lat="45.47656" lon="6.41134">
        <ele>1419</ele>
        <time>2022-08-06T07:40:17Z</time>
      </trkpt>
      <trkpt lat="45.47657" lon="6.41127">
        <ele>1421</ele>
        <time>2022-08-06T07:40:27Z</time>
      </trkpt>
      <trkpt lat="45.4766" lon="6.41121">
        <ele>1422</ele>
        <time>2022-08-06T07:40:37Z</time>
      </trkpt>
      <trkpt lat="45.47656" lon="6.41115">
        <ele>1423</ele>
        <time>2022-08-06T07:40:47Z</time>
      </trkpt>
      <trkpt lat="45.47659" lon="6.41111">
        <ele>1425</ele>
        <time>2022-08-06T07:40:57Z</time>
      </trkpt>
      <trkpt lat="45.47661" lon="6.41105">
        <ele>1426</ele>
        <time>2022-08-06T07:41:07Z</time>
      </trkpt>
      <trkpt lat="45.47661" lon="6.41096">
        <ele>1428</ele>
        <time>2022-08-06T07:41:22Z</time>
      </trkpt>
      <trkpt lat="45.47664" lon="6.4109">
        <ele>1430</ele>
        <time>2022-08-06T07:41:32Z</time>
      </trkpt>
      <trkpt lat="45.47671" lon="6.41077">
        <ele>1432</ele>
        <time>2022-08-06T07:41:52Z</time>
      </trkpt>
      <trkpt lat="45.47673" lon="6.41068">
        <ele>1434</ele>
        <time>2022-08-06T07:42:03Z</time>
      </trkpt>
      <trkpt lat="45.47669" lon="6.41062">
        <ele>1436</ele>
        <time>2022-08-06T07:42:15Z</time>
      </trkpt>
      <trkpt lat="45.47669" lon="6.41055">
        <ele>1438</ele>
        <time>2022-08-06T07:42:30Z</time>
      </trkpt>
      <trkpt lat="45.47674" lon="6.4105">
        <ele>1439</ele>
        <time>2022-08-06T07:42:40Z</time>
      </trkpt>
      <trkpt lat="45.47677" lon="6.41044">
        <ele>1440</ele>
        <time>2022-08-06T07:42:50Z</time>
      </trkpt>
      <trkpt lat="45.47678" lon="6.41038">
        <ele>1441</ele>
        <time>2022-08-06T07:43:00Z</time>
      </trkpt>
      <trkpt lat="45.4768" lon="6.41032">
        <ele>1444</ele>
        <time>2022-08-06T07:43:15Z</time>
      </trkpt>
      <trkpt lat="45.47684" lon="6.41026">
        <ele>1445</ele>
        <time>2022-08-06T07:43:25Z</time>
      </trkpt>
      <trkpt lat="45.47682" lon="6.41019">
        <ele>1447</ele>
        <time>2022-08-06T07:43:35Z</time>
      </trkpt>
      <trkpt lat="45.47677" lon="6.41013">
        <ele>1448</ele>
        <time>2022-08-06T07:43:45Z</time>
      </trkpt>
      <trkpt lat="45.4768" lon="6.41007">
        <ele>1450</ele>
        <time>2022-08-06T07:44:00Z</time>
      </trkpt>
      <trkpt lat="45.47685" lon="6.41003">
        <ele>1452</ele>
        <time>2022-08-06T07:44:12Z</time>
      </trkpt>
      <trkpt lat="45.47687" lon="6.40996">
        <ele>1453</ele>
        <time>2022-08-06T07:44:23Z</time>
      </trkpt>
      <trkpt lat="45.47676" lon="6.40983">
        <ele>1457</ele>
        <time>2022-08-06T07:44:53Z</time>
      </trkpt>
      <trkpt lat="45.4768" lon="6.4098">
        <ele>1459</ele>
        <time>2022-08-06T07:45:08Z</time>
      </trkpt>
      <trkpt lat="45.47685" lon="6.40975">
        <ele>1460</ele>
        <time>2022-08-06T07:45:18Z</time>
      </trkpt>
      <trkpt lat="45.47692" lon="6.40966">
        <ele>1463</ele>
        <time>2022-08-06T07:45:38Z</time>
      </trkpt>
      <trkpt lat="45.47693" lon="6.40959">
        <ele>1464</ele>
        <time>2022-08-06T07:45:48Z</time>
      </trkpt>
      <trkpt lat="45.4769" lon="6.40955">
        <ele>1465</ele>
        <time>2022-08-06T07:45:54Z</time>
      </trkpt>
      <trkpt lat="45.47691" lon="6.40948">
        <ele>1468</ele>
        <time>2022-08-06T07:46:09Z</time>
      </trkpt>
      <trkpt lat="45.47687" lon="6.40942">
        <ele>1470</ele>
        <time>2022-08-06T07:46:21Z</time>
      </trkpt>
      <trkpt lat="45.47681" lon="6.40939">
        <ele>1471</ele>
        <time>2022-08-06T07:46:32Z</time>
      </trkpt>
      <trkpt lat="45.47682" lon="6.40932">
        <ele>1473</ele>
        <time>2022-08-06T07:46:42Z</time>
      </trkpt>
      <trkpt lat="45.47687" lon="6.40931">
        <ele>1473</ele>
        <time>2022-08-06T07:46:47Z</time>
      </trkpt>
      <trkpt lat="45.47698" lon="6.40924">
        <ele>1475</ele>
        <time>2022-08-06T07:47:00Z</time>
      </trkpt>
      <trkpt lat="45.47703" lon="6.40917">
        <ele>1476</ele>
        <time>2022-08-06T07:47:07Z</time>
      </trkpt>
      <trkpt lat="45.47727" lon="6.4089">
        <ele>1480</ele>
        <time>2022-08-06T07:47:41Z</time>
      </trkpt>
      <trkpt lat="45.47733" lon="6.40883">
        <ele>1480</ele>
        <time>2022-08-06T07:47:49Z</time>
      </trkpt>
      <trkpt lat="45.4775" lon="6.40857">
        <ele>1483</ele>
        <time>2022-08-06T07:48:14Z</time>
      </trkpt>
      <trkpt lat="45.47754" lon="6.40853">
        <ele>1484</ele>
        <time>2022-08-06T07:48:19Z</time>
      </trkpt>
      <trkpt lat="45.47766" lon="6.40844">
        <ele>1486</ele>
        <time>2022-08-06T07:48:33Z</time>
      </trkpt>
      <trkpt lat="45.4779" lon="6.40846">
        <ele>1487</ele>
        <time>2022-08-06T07:48:56Z</time>
      </trkpt>
      <trkpt lat="45.47795" lon="6.40848">
        <ele>1488</ele>
        <time>2022-08-06T07:49:01Z</time>
      </trkpt>
      <trkpt lat="45.47804" lon="6.40849">
        <ele>1488</ele>
        <time>2022-08-06T07:49:10Z</time>
      </trkpt>
      <trkpt lat="45.47817" lon="6.40845">
        <ele>1489</ele>
        <time>2022-08-06T07:49:23Z</time>
      </trkpt>
      <trkpt lat="45.47825" lon="6.40851">
        <ele>1490</ele>
        <time>2022-08-06T07:49:32Z</time>
      </trkpt>
      <trkpt lat="45.47828" lon="6.40856">
        <ele>1490</ele>
        <time>2022-08-06T07:49:37Z</time>
      </trkpt>
      <trkpt lat="45.47831" lon="6.40872">
        <ele>1491</ele>
        <time>2022-08-06T07:49:49Z</time>
      </trkpt>
      <trkpt lat="45.47824" lon="6.40899">
        <ele>1493</ele>
        <time>2022-08-06T07:50:13Z</time>
      </trkpt>
      <trkpt lat="45.47823" lon="6.40905">
        <ele>1494</ele>
        <time>2022-08-06T07:50:18Z</time>
      </trkpt>
      <trkpt lat="45.47821" lon="6.40918">
        <ele>1494</ele>
        <time>2022-08-06T07:50:27Z</time>
      </trkpt>
      <trkpt lat="45.47821" lon="6.40925">
        <ele>1495</ele>
        <time>2022-08-06T07:50:31Z</time>
      </trkpt>
      <trkpt lat="45.47819" lon="6.40932">
        <ele>1495</ele>
        <time>2022-08-06T07:50:35Z</time>
      </trkpt>
      <trkpt lat="45.47819" lon="6.40961">
        <ele>1498</ele>
        <time>2022-08-06T07:50:57Z</time>
      </trkpt>
      <trkpt lat="45.4782" lon="6.40967">
        <ele>1498</ele>
        <time>2022-08-06T07:51:02Z</time>
      </trkpt>
      <trkpt lat="45.47826" lon="6.40965">
        <ele>1499</ele>
        <time>2022-08-06T07:51:11Z</time>
      </trkpt>
      <trkpt lat="45.47828" lon="6.40957">
        <ele>1501</ele>
        <time>2022-08-06T07:51:21Z</time>
      </trkpt>
      <trkpt lat="45.47832" lon="6.40953">
        <ele>1503</ele>
        <time>2022-08-06T07:51:31Z</time>
      </trkpt>
      <trkpt lat="45.47836" lon="6.40947">
        <ele>1504</ele>
        <time>2022-08-06T07:51:42Z</time>
      </trkpt>
      <trkpt lat="45.47841" lon="6.40939">
        <ele>1506</ele>
        <time>2022-08-06T07:51:57Z</time>
      </trkpt>
      <trkpt lat="45.47844" lon="6.40933">
        <ele>1507</ele>
        <time>2022-08-06T07:52:08Z</time>
      </trkpt>
      <trkpt lat="45.47856" lon="6.40915">
        <ele>1512</ele>
        <time>2022-08-06T07:52:39Z</time>
      </trkpt>
      <trkpt lat="45.47856" lon="6.40909">
        <ele>1513</ele>
        <time>2022-08-06T07:52:45Z</time>
      </trkpt>
      <trkpt lat="45.47861" lon="6.40905">
        <ele>1514</ele>
        <time>2022-08-06T07:52:55Z</time>
      </trkpt>
      <trkpt lat="45.47864" lon="6.40899">
        <ele>1515</ele>
        <time>2022-08-06T07:53:05Z</time>
      </trkpt>
      <trkpt lat="45.4787" lon="6.40896">
        <ele>1517</ele>
        <time>2022-08-06T07:53:16Z</time>
      </trkpt>
      <trkpt lat="45.47876" lon="6.40886">
        <ele>1518</ele>
        <time>2022-08-06T07:53:26Z</time>
      </trkpt>
      <trkpt lat="45.47879" lon="6.40878">
        <ele>1519</ele>
        <time>2022-08-06T07:53:38Z</time>
      </trkpt>
      <trkpt lat="45.47895" lon="6.40864">
        <ele>1527</ele>
        <time>2022-08-06T07:54:19Z</time>
      </trkpt>
      <trkpt lat="45.47898" lon="6.40859">
        <ele>1527</ele>
        <time>2022-08-06T07:54:24Z</time>
      </trkpt>
      <trkpt lat="45.47901" lon="6.40852">
        <ele>1528</ele>
        <time>2022-08-06T07:54:31Z</time>
      </trkpt>
      <trkpt lat="45.4791" lon="6.40844">
        <ele>1532</ele>
        <time>2022-08-06T07:54:59Z</time>
      </trkpt>
      <trkpt lat="45.47913" lon="6.40838">
        <ele>1533</ele>
        <time>2022-08-06T07:55:06Z</time>
      </trkpt>
      <trkpt lat="45.47916" lon="6.40833">
        <ele>1534</ele>
        <time>2022-08-06T07:55:12Z</time>
      </trkpt>
      <trkpt lat="45.47921" lon="6.4083">
        <ele>1534</ele>
        <time>2022-08-06T07:55:17Z</time>
      </trkpt>
      <trkpt lat="45.47925" lon="6.40819">
        <ele>1535</ele>
        <time>2022-08-06T07:55:29Z</time>
      </trkpt>
      <trkpt lat="45.47926" lon="6.40813">
        <ele>1537</ele>
        <time>2022-08-06T07:55:39Z</time>
      </trkpt>
      <trkpt lat="45.4793" lon="6.40808">
        <ele>1538</ele>
        <time>2022-08-06T07:55:49Z</time>
      </trkpt>
      <trkpt lat="45.47935" lon="6.40803">
        <ele>1540</ele>
        <time>2022-08-06T07:55:59Z</time>
      </trkpt>
      <trkpt lat="45.47938" lon="6.40799">
        <ele>1541</ele>
        <time>2022-08-06T07:56:09Z</time>
      </trkpt>
      <trkpt lat="45.47941" lon="6.40804">
        <ele>1543</ele>
        <time>2022-08-06T07:56:19Z</time>
      </trkpt>
      <trkpt lat="45.47945" lon="6.40799">
        <ele>1544</ele>
        <time>2022-08-06T07:56:29Z</time>
      </trkpt>
      <trkpt lat="45.47949" lon="6.40792">
        <ele>1545</ele>
        <time>2022-08-06T07:56:40Z</time>
      </trkpt>
      <trkpt lat="45.47951" lon="6.40783">
        <ele>1547</ele>
        <time>2022-08-06T07:56:57Z</time>
      </trkpt>
      <trkpt lat="45.47961" lon="6.40772">
        <ele>1550</ele>
        <time>2022-08-06T07:57:22Z</time>
      </trkpt>
      <trkpt lat="45.47965" lon="6.40767">
        <ele>1552</ele>
        <time>2022-08-06T07:57:32Z</time>
      </trkpt>
      <trkpt lat="45.4797" lon="6.40764">
        <ele>1553</ele>
        <time>2022-08-06T07:57:42Z</time>
      </trkpt>
      <trkpt lat="45.47977" lon="6.40753">
        <ele>1556</ele>
        <time>2022-08-06T07:58:02Z</time>
      </trkpt>
      <trkpt lat="45.47982" lon="6.40747">
        <ele>1557</ele>
        <time>2022-08-06T07:58:12Z</time>
      </trkpt>
      <trkpt lat="45.47984" lon="6.40739">
        <ele>1558</ele>
        <time>2022-08-06T07:58:23Z</time>
      </trkpt>
      <trkpt lat="45.47993" lon="6.40734">
        <ele>1561</ele>
        <time>2022-08-06T07:58:43Z</time>
      </trkpt>
      <trkpt lat="45.47999" lon="6.40732">
        <ele>1563</ele>
        <time>2022-08-06T07:58:55Z</time>
      </trkpt>
      <trkpt lat="45.48006" lon="6.40722">
        <ele>1566</ele>
        <time>2022-08-06T07:59:17Z</time>
      </trkpt>
      <trkpt lat="45.48012" lon="6.40712">
        <ele>1569</ele>
        <time>2022-08-06T07:59:37Z</time>
      </trkpt>
      <trkpt lat="45.48018" lon="6.40708">
        <ele>1571</ele>
        <time>2022-08-06T07:59:53Z</time>
      </trkpt>
      <trkpt lat="45.48023" lon="6.40708">
        <ele>1572</ele>
        <time>2022-08-06T08:00:03Z</time>
      </trkpt>
      <trkpt lat="45.4803" lon="6.40701">
        <ele>1574</ele>
        <time>2022-08-06T08:00:15Z</time>
      </trkpt>
      <trkpt lat="45.48036" lon="6.407">
        <ele>1575</ele>
        <time>2022-08-06T08:00:25Z</time>
      </trkpt>
      <trkpt lat="45.48045" lon="6.40696">
        <ele>1577</ele>
        <time>2022-08-06T08:00:41Z</time>
      </trkpt>
      <trkpt lat="45.48064" lon="6.40682">
        <ele>1580</ele>
        <time>2022-08-06T08:01:12Z</time>
      </trkpt>
      <trkpt lat="45.48083" lon="6.40675">
        <ele>1584</ele>
        <time>2022-08-06T08:01:47Z</time>
      </trkpt>
      <trkpt lat="45.48093" lon="6.40671">
        <ele>1587</ele>
        <time>2022-08-06T08:02:07Z</time>
      </trkpt>
      <trkpt lat="45.48098" lon="6.40673">
        <ele>1588</ele>
        <time>2022-08-06T08:02:13Z</time>
      </trkpt>
      <trkpt lat="45.48102" lon="6.4067">
        <ele>1588</ele>
        <time>2022-08-06T08:02:20Z</time>
      </trkpt>
      <trkpt lat="45.48113" lon="6.40674">
        <ele>1592</ele>
        <time>2022-08-06T08:02:45Z</time>
      </trkpt>
      <trkpt lat="45.4812" lon="6.40672">
        <ele>1593</ele>
        <time>2022-08-06T08:02:55Z</time>
      </trkpt>
      <trkpt lat="45.48132" lon="6.40672">
        <ele>1596</ele>
        <time>2022-08-06T08:03:19Z</time>
      </trkpt>
      <trkpt lat="45.48138" lon="6.4067">
        <ele>1597</ele>
        <time>2022-08-06T08:03:29Z</time>
      </trkpt>
      <trkpt lat="45.48153" lon="6.40672">
        <ele>1601</ele>
        <time>2022-08-06T08:03:59Z</time>
      </trkpt>
      <trkpt lat="45.48157" lon="6.40674">
        <ele>1603</ele>
        <time>2022-08-06T08:04:09Z</time>
      </trkpt>
      <trkpt lat="45.48162" lon="6.40675">
        <ele>1604</ele>
        <time>2022-08-06T08:04:19Z</time>
      </trkpt>
      <trkpt lat="45.48167" lon="6.40673">
        <ele>1605</ele>
        <time>2022-08-06T08:04:29Z</time>
      </trkpt>
      <trkpt lat="45.48173" lon="6.40676">
        <ele>1607</ele>
        <time>2022-08-06T08:04:44Z</time>
      </trkpt>
      <trkpt lat="45.48183" lon="6.40675">
        <ele>1611</ele>
        <time>2022-08-06T08:05:06Z</time>
      </trkpt>
      <trkpt lat="45.48189" lon="6.40672">
        <ele>1610</ele>
        <time>2022-08-06T08:05:17Z</time>
      </trkpt>
      <trkpt lat="45.48193" lon="6.40674">
        <ele>1612</ele>
        <time>2022-08-06T08:06:13Z</time>
      </trkpt>
      <trkpt lat="45.482" lon="6.40674">
        <ele>1614</ele>
        <time>2022-08-06T08:06:28Z</time>
      </trkpt>
      <trkpt lat="45.48204" lon="6.40673">
        <ele>1616</ele>
        <time>2022-08-06T08:07:08Z</time>
      </trkpt>
      <trkpt lat="45.48215" lon="6.40674">
        <ele>1620</ele>
        <time>2022-08-06T08:07:40Z</time>
      </trkpt>
      <trkpt lat="45.48219" lon="6.40672">
        <ele>1621</ele>
        <time>2022-08-06T08:07:50Z</time>
      </trkpt>
      <trkpt lat="45.48224" lon="6.40671">
        <ele>1622</ele>
        <time>2022-08-06T08:08:35Z</time>
      </trkpt>
      <trkpt lat="45.48229" lon="6.40671">
        <ele>1623</ele>
        <time>2022-08-06T08:09:01Z</time>
      </trkpt>
      <trkpt lat="45.48234" lon="6.40669">
        <ele>1624</ele>
        <time>2022-08-06T08:09:17Z</time>
      </trkpt>
      <trkpt lat="45.48239" lon="6.40668">
        <ele>1625</ele>
        <time>2022-08-06T08:09:29Z</time>
      </trkpt>
      <trkpt lat="45.48252" lon="6.40661">
        <ele>1628</ele>
        <time>2022-08-06T08:10:00Z</time>
      </trkpt>
      <trkpt lat="45.48256" lon="6.40657">
        <ele>1630</ele>
        <time>2022-08-06T08:10:10Z</time>
      </trkpt>
      <trkpt lat="45.48267" lon="6.40649">
        <ele>1634</ele>
        <time>2022-08-06T08:10:40Z</time>
      </trkpt>
      <trkpt lat="45.48278" lon="6.40644">
        <ele>1638</ele>
        <time>2022-08-06T08:11:10Z</time>
      </trkpt>
      <trkpt lat="45.48293" lon="6.40637">
        <ele>1643</ele>
        <time>2022-08-06T08:11:42Z</time>
      </trkpt>
      <trkpt lat="45.48298" lon="6.40632">
        <ele>1644</ele>
        <time>2022-08-06T08:11:57Z</time>
      </trkpt>
      <trkpt lat="45.48303" lon="6.4063">
        <ele>1646</ele>
        <time>2022-08-06T08:12:07Z</time>
      </trkpt>
      <trkpt lat="45.48307" lon="6.40628">
        <ele>1647</ele>
        <time>2022-08-06T08:12:17Z</time>
      </trkpt>
      <trkpt lat="45.48316" lon="6.40624">
        <ele>1649</ele>
        <time>2022-08-06T08:12:42Z</time>
      </trkpt>
      <trkpt lat="45.48321" lon="6.40622">
        <ele>1650</ele>
        <time>2022-08-06T08:12:52Z</time>
      </trkpt>
      <trkpt lat="45.48325" lon="6.4062">
        <ele>1651</ele>
        <time>2022-08-06T08:13:02Z</time>
      </trkpt>
      <trkpt lat="45.48331" lon="6.40616">
        <ele>1653</ele>
        <time>2022-08-06T08:13:12Z</time>
      </trkpt>
      <trkpt lat="45.48341" lon="6.4061">
        <ele>1656</ele>
        <time>2022-08-06T08:13:39Z</time>
      </trkpt>
      <trkpt lat="45.48346" lon="6.40607">
        <ele>1658</ele>
        <time>2022-08-06T08:13:50Z</time>
      </trkpt>
      <trkpt lat="45.48351" lon="6.40605">
        <ele>1659</ele>
        <time>2022-08-06T08:14:00Z</time>
      </trkpt>
      <trkpt lat="45.48357" lon="6.40605">
        <ele>1661</ele>
        <time>2022-08-06T08:14:11Z</time>
      </trkpt>
      <trkpt lat="45.48362" lon="6.40602">
        <ele>1662</ele>
        <time>2022-08-06T08:14:21Z</time>
      </trkpt>
      <trkpt lat="45.48371" lon="6.40599">
        <ele>1665</ele>
        <time>2022-08-06T08:14:41Z</time>
      </trkpt>
      <trkpt lat="45.48377" lon="6.40595">
        <ele>1666</ele>
        <time>2022-08-06T08:14:51Z</time>
      </trkpt>
      <trkpt lat="45.48389" lon="6.40591">
        <ele>1671</ele>
        <time>2022-08-06T08:15:21Z</time>
      </trkpt>
      <trkpt lat="45.48394" lon="6.40589">
        <ele>1672</ele>
        <time>2022-08-06T08:15:31Z</time>
      </trkpt>
      <trkpt lat="45.48408" lon="6.40581">
        <ele>1678</ele>
        <time>2022-08-06T08:16:09Z</time>
      </trkpt>
      <trkpt lat="45.48413" lon="6.40578">
        <ele>1679</ele>
        <time>2022-08-06T08:16:19Z</time>
      </trkpt>
      <trkpt lat="45.48418" lon="6.40575">
        <ele>1681</ele>
        <time>2022-08-06T08:16:34Z</time>
      </trkpt>
      <trkpt lat="45.48422" lon="6.4057">
        <ele>1683</ele>
        <time>2022-08-06T08:16:49Z</time>
      </trkpt>
      <trkpt lat="45.48427" lon="6.40568">
        <ele>1684</ele>
        <time>2022-08-06T08:17:24Z</time>
      </trkpt>
      <trkpt lat="45.48438" lon="6.40563">
        <ele>1689</ele>
        <time>2022-08-06T08:17:57Z</time>
      </trkpt>
      <trkpt lat="45.48442" lon="6.40558">
        <ele>1690</ele>
        <time>2022-08-06T08:18:07Z</time>
      </trkpt>
      <trkpt lat="45.48457" lon="6.40549">
        <ele>1696</ele>
        <time>2022-08-06T08:18:47Z</time>
      </trkpt>
      <trkpt lat="45.48472" lon="6.40538">
        <ele>1700</ele>
        <time>2022-08-06T08:19:17Z</time>
      </trkpt>
      <trkpt lat="45.48483" lon="6.40526">
        <ele>1703</ele>
        <time>2022-08-06T08:19:48Z</time>
      </trkpt>
      <trkpt lat="45.48488" lon="6.40523">
        <ele>1705</ele>
        <time>2022-08-06T08:19:59Z</time>
      </trkpt>
      <trkpt lat="45.48492" lon="6.40519">
        <ele>1707</ele>
        <time>2022-08-06T08:20:30Z</time>
      </trkpt>
      <trkpt lat="45.48498" lon="6.40518">
        <ele>1708</ele>
        <time>2022-08-06T08:21:05Z</time>
      </trkpt>
      <trkpt lat="45.48502" lon="6.40514">
        <ele>1710</ele>
        <time>2022-08-06T08:21:15Z</time>
      </trkpt>
      <trkpt lat="45.48516" lon="6.405">
        <ele>1713</ele>
        <time>2022-08-06T08:21:45Z</time>
      </trkpt>
      <trkpt lat="45.48521" lon="6.40496">
        <ele>1714</ele>
        <time>2022-08-06T08:21:56Z</time>
      </trkpt>
      <trkpt lat="45.48525" lon="6.40496">
        <ele>1714</ele>
        <time>2022-08-06T08:24:12Z</time>
      </trkpt>
      <trkpt lat="45.4853" lon="6.40494">
        <ele>1715</ele>
        <time>2022-08-06T08:24:37Z</time>
      </trkpt>
      <trkpt lat="45.48535" lon="6.40494">
        <ele>1716</ele>
        <time>2022-08-06T08:24:47Z</time>
      </trkpt>
      <trkpt lat="45.4855" lon="6.40484">
        <ele>1721</ele>
        <time>2022-08-06T08:25:22Z</time>
      </trkpt>
      <trkpt lat="45.48554" lon="6.4048">
        <ele>1722</ele>
        <time>2022-08-06T08:25:32Z</time>
      </trkpt>
      <trkpt lat="45.48559" lon="6.40483">
        <ele>1724</ele>
        <time>2022-08-06T08:25:47Z</time>
      </trkpt>
      <trkpt lat="45.48562" lon="6.4049">
        <ele>1726</ele>
        <time>2022-08-06T08:26:02Z</time>
      </trkpt>
      <trkpt lat="45.48567" lon="6.40485">
        <ele>1728</ele>
        <time>2022-08-06T08:26:13Z</time>
      </trkpt>
      <trkpt lat="45.48581" lon="6.40476">
        <ele>1732</ele>
        <time>2022-08-06T08:26:49Z</time>
      </trkpt>
      <trkpt lat="45.48586" lon="6.40472">
        <ele>1734</ele>
        <time>2022-08-06T08:27:04Z</time>
      </trkpt>
      <trkpt lat="45.48593" lon="6.40472">
        <ele>1737</ele>
        <time>2022-08-06T08:27:19Z</time>
      </trkpt>
      <trkpt lat="45.48601" lon="6.40465">
        <ele>1739</ele>
        <time>2022-08-06T08:27:39Z</time>
      </trkpt>
      <trkpt lat="45.48608" lon="6.40464">
        <ele>1740</ele>
        <time>2022-08-06T08:27:54Z</time>
      </trkpt>
      <trkpt lat="45.48612" lon="6.40459">
        <ele>1741</ele>
        <time>2022-08-06T08:28:04Z</time>
      </trkpt>
      <trkpt lat="45.48617" lon="6.40455">
        <ele>1743</ele>
        <time>2022-08-06T08:28:15Z</time>
      </trkpt>
      <trkpt lat="45.48619" lon="6.40447">
        <ele>1744</ele>
        <time>2022-08-06T08:28:25Z</time>
      </trkpt>
      <trkpt lat="45.48628" lon="6.40438">
        <ele>1747</ele>
        <time>2022-08-06T08:28:50Z</time>
      </trkpt>
      <trkpt lat="45.48632" lon="6.40434">
        <ele>1748</ele>
        <time>2022-08-06T08:29:00Z</time>
      </trkpt>
      <trkpt lat="45.48636" lon="6.4043">
        <ele>1750</ele>
        <time>2022-08-06T08:29:15Z</time>
      </trkpt>
      <trkpt lat="45.4864" lon="6.40425">
        <ele>1751</ele>
        <time>2022-08-06T08:29:25Z</time>
      </trkpt>
      <trkpt lat="45.48646" lon="6.40408">
        <ele>1754</ele>
        <time>2022-08-06T08:30:00Z</time>
      </trkpt>
      <trkpt lat="45.48648" lon="6.40402">
        <ele>1755</ele>
        <time>2022-08-06T08:30:10Z</time>
      </trkpt>
      <trkpt lat="45.48648" lon="6.40395">
        <ele>1757</ele>
        <time>2022-08-06T08:30:21Z</time>
      </trkpt>
      <trkpt lat="45.48652" lon="6.40389">
        <ele>1759</ele>
        <time>2022-08-06T08:30:38Z</time>
      </trkpt>
      <trkpt lat="45.48656" lon="6.40386">
        <ele>1761</ele>
        <time>2022-08-06T08:30:53Z</time>
      </trkpt>
      <trkpt lat="45.48661" lon="6.40385">
        <ele>1763</ele>
        <time>2022-08-06T08:31:08Z</time>
      </trkpt>
      <trkpt lat="45.48665" lon="6.40388">
        <ele>1766</ele>
        <time>2022-08-06T08:32:08Z</time>
      </trkpt>
      <trkpt lat="45.4867" lon="6.40388">
        <ele>1770</ele>
        <time>2022-08-06T08:48:03Z</time>
      </trkpt>
      <trkpt lat="45.48671" lon="6.40382">
        <ele>1771</ele>
        <time>2022-08-06T08:48:53Z</time>
      </trkpt>
      <trkpt lat="45.48675" lon="6.40378">
        <ele>1772</ele>
        <time>2022-08-06T08:49:35Z</time>
      </trkpt>
      <trkpt lat="45.48676" lon="6.4037">
        <ele>1772</ele>
        <time>2022-08-06T08:50:10Z</time>
      </trkpt>
      <trkpt lat="45.48677" lon="6.40364">
        <ele>1773</ele>
        <time>2022-08-06T08:50:35Z</time>
      </trkpt>
      <trkpt lat="45.4868" lon="6.4036">
        <ele>1774</ele>
        <time>2022-08-06T08:51:10Z</time>
      </trkpt>
      <trkpt lat="45.48686" lon="6.40347">
        <ele>1776</ele>
        <time>2022-08-06T08:51:33Z</time>
      </trkpt>
      <trkpt lat="45.48687" lon="6.40341">
        <ele>1777</ele>
        <time>2022-08-06T08:51:43Z</time>
      </trkpt>
      <trkpt lat="45.48692" lon="6.40334">
        <ele>1778</ele>
        <time>2022-08-06T08:51:58Z</time>
      </trkpt>
      <trkpt lat="45.48695" lon="6.40328">
        <ele>1780</ele>
        <time>2022-08-06T08:52:13Z</time>
      </trkpt>
      <trkpt lat="45.48701" lon="6.40316">
        <ele>1782</ele>
        <time>2022-08-06T08:52:38Z</time>
      </trkpt>
      <trkpt lat="45.48705" lon="6.40312">
        <ele>1784</ele>
        <time>2022-08-06T08:52:53Z</time>
      </trkpt>
      <trkpt lat="45.48712" lon="6.40299">
        <ele>1787</ele>
        <time>2022-08-06T08:53:18Z</time>
      </trkpt>
      <trkpt lat="45.48718" lon="6.40285">
        <ele>1789</ele>
        <time>2022-08-06T08:53:41Z</time>
      </trkpt>
      <trkpt lat="45.48721" lon="6.40278">
        <ele>1790</ele>
        <time>2022-08-06T08:53:51Z</time>
      </trkpt>
      <trkpt lat="45.48724" lon="6.40271">
        <ele>1791</ele>
        <time>2022-08-06T08:54:01Z</time>
      </trkpt>
      <trkpt lat="45.48726" lon="6.40265">
        <ele>1792</ele>
        <time>2022-08-06T08:54:11Z</time>
      </trkpt>
      <trkpt lat="45.48729" lon="6.40259">
        <ele>1793</ele>
        <time>2022-08-06T08:54:21Z</time>
      </trkpt>
      <trkpt lat="45.48733" lon="6.40247">
        <ele>1795</ele>
        <time>2022-08-06T08:54:41Z</time>
      </trkpt>
      <trkpt lat="45.48734" lon="6.40239">
        <ele>1796</ele>
        <time>2022-08-06T08:54:51Z</time>
      </trkpt>
      <trkpt lat="45.48737" lon="6.40233">
        <ele>1797</ele>
        <time>2022-08-06T08:55:01Z</time>
      </trkpt>
      <trkpt lat="45.48739" lon="6.40226">
        <ele>1798</ele>
        <time>2022-08-06T08:55:11Z</time>
      </trkpt>
      <trkpt lat="45.48747" lon="6.40207">
        <ele>1802</ele>
        <time>2022-08-06T08:55:48Z</time>
      </trkpt>
      <trkpt lat="45.48751" lon="6.40201">
        <ele>1804</ele>
        <time>2022-08-06T08:56:03Z</time>
      </trkpt>
      <trkpt lat="45.48753" lon="6.40195">
        <ele>1806</ele>
        <time>2022-08-06T08:56:13Z</time>
      </trkpt>
      <trkpt lat="45.48761" lon="6.40181">
        <ele>1809</ele>
        <time>2022-08-06T08:56:43Z</time>
      </trkpt>
      <trkpt lat="45.48763" lon="6.40175">
        <ele>1810</ele>
        <time>2022-08-06T08:56:53Z</time>
      </trkpt>
      <trkpt lat="45.48768" lon="6.40163">
        <ele>1812</ele>
        <time>2022-08-06T08:57:13Z</time>
      </trkpt>
      <trkpt lat="45.48769" lon="6.40156">
        <ele>1813</ele>
        <time>2022-08-06T08:57:23Z</time>
      </trkpt>
      <trkpt lat="45.48774" lon="6.40153">
        <ele>1815</ele>
        <time>2022-08-06T08:57:35Z</time>
      </trkpt>
      <trkpt lat="45.48775" lon="6.40145">
        <ele>1816</ele>
        <time>2022-08-06T08:57:47Z</time>
      </trkpt>
      <trkpt lat="45.48779" lon="6.40138">
        <ele>1818</ele>
        <time>2022-08-06T08:58:48Z</time>
      </trkpt>
      <trkpt lat="45.48786" lon="6.40119">
        <ele>1822</ele>
        <time>2022-08-06T08:59:19Z</time>
      </trkpt>
      <trkpt lat="45.48793" lon="6.40105">
        <ele>1825</ele>
        <time>2022-08-06T08:59:45Z</time>
      </trkpt>
      <trkpt lat="45.488" lon="6.40085">
        <ele>1829</ele>
        <time>2022-08-06T09:00:17Z</time>
      </trkpt>
      <trkpt lat="45.48804" lon="6.40082">
        <ele>1830</ele>
        <time>2022-08-06T09:00:27Z</time>
      </trkpt>
      <trkpt lat="45.48807" lon="6.40077">
        <ele>1832</ele>
        <time>2022-08-06T09:00:37Z</time>
      </trkpt>
      <trkpt lat="45.48811" lon="6.40073">
        <ele>1833</ele>
        <time>2022-08-06T09:00:47Z</time>
      </trkpt>
      <trkpt lat="45.48814" lon="6.40059">
        <ele>1836</ele>
        <time>2022-08-06T09:01:07Z</time>
      </trkpt>
      <trkpt lat="45.48818" lon="6.40055">
        <ele>1837</ele>
        <time>2022-08-06T09:01:17Z</time>
      </trkpt>
      <trkpt lat="45.48821" lon="6.40048">
        <ele>1838</ele>
        <time>2022-08-06T09:01:27Z</time>
      </trkpt>
      <trkpt lat="45.48824" lon="6.40042">
        <ele>1839</ele>
        <time>2022-08-06T09:01:37Z</time>
      </trkpt>
      <trkpt lat="45.48827" lon="6.40036">
        <ele>1841</ele>
        <time>2022-08-06T09:01:53Z</time>
      </trkpt>
      <trkpt lat="45.48833" lon="6.40034">
        <ele>1844</ele>
        <time>2022-08-06T09:02:10Z</time>
      </trkpt>
      <trkpt lat="45.48838" lon="6.40032">
        <ele>1845</ele>
        <time>2022-08-06T09:02:25Z</time>
      </trkpt>
      <trkpt lat="45.48844" lon="6.40022">
        <ele>1848</ele>
        <time>2022-08-06T09:02:45Z</time>
      </trkpt>
      <trkpt lat="45.48846" lon="6.40016">
        <ele>1849</ele>
        <time>2022-08-06T09:02:55Z</time>
      </trkpt>
      <trkpt lat="45.48849" lon="6.40012">
        <ele>1850</ele>
        <time>2022-08-06T09:03:05Z</time>
      </trkpt>
      <trkpt lat="45.48852" lon="6.40006">
        <ele>1852</ele>
        <time>2022-08-06T09:03:15Z</time>
      </trkpt>
      <trkpt lat="45.48856" lon="6.40001">
        <ele>1854</ele>
        <time>2022-08-06T09:03:30Z</time>
      </trkpt>
      <trkpt lat="45.48865" lon="6.39986">
        <ele>1858</ele>
        <time>2022-08-06T09:04:01Z</time>
      </trkpt>
      <trkpt lat="45.48869" lon="6.39982">
        <ele>1860</ele>
        <time>2022-08-06T09:04:17Z</time>
      </trkpt>
      <trkpt lat="45.48874" lon="6.39978">
        <ele>1863</ele>
        <time>2022-08-06T09:04:37Z</time>
      </trkpt>
      <trkpt lat="45.48879" lon="6.39972">
        <ele>1865</ele>
        <time>2022-08-06T09:04:52Z</time>
      </trkpt>
      <trkpt lat="45.48884" lon="6.39967">
        <ele>1867</ele>
        <time>2022-08-06T09:05:07Z</time>
      </trkpt>
      <trkpt lat="45.48888" lon="6.39962">
        <ele>1869</ele>
        <time>2022-08-06T09:05:22Z</time>
      </trkpt>
      <trkpt lat="45.48889" lon="6.39953">
        <ele>1871</ele>
        <time>2022-08-06T09:05:32Z</time>
      </trkpt>
      <trkpt lat="45.48891" lon="6.39945">
        <ele>1872</ele>
        <time>2022-08-06T09:05:42Z</time>
      </trkpt>
      <trkpt lat="45.48898" lon="6.39933">
        <ele>1873</ele>
        <time>2022-08-06T09:06:05Z</time>
      </trkpt>
      <trkpt lat="45.48902" lon="6.39932">
        <ele>1874</ele>
        <time>2022-08-06T09:06:17Z</time>
      </trkpt>
      <trkpt lat="45.48906" lon="6.3993">
        <ele>1876</ele>
        <time>2022-08-06T09:06:27Z</time>
      </trkpt>
      <trkpt lat="45.48916" lon="6.39906">
        <ele>1879</ele>
        <time>2022-08-06T09:06:57Z</time>
      </trkpt>
      <trkpt lat="45.48924" lon="6.39883">
        <ele>1882</ele>
        <time>2022-08-06T09:07:27Z</time>
      </trkpt>
      <trkpt lat="45.48928" lon="6.39865">
        <ele>1883</ele>
        <time>2022-08-06T09:07:47Z</time>
      </trkpt>
      <trkpt lat="45.48934" lon="6.39851">
        <ele>1885</ele>
        <time>2022-08-06T09:08:08Z</time>
      </trkpt>
      <trkpt lat="45.48941" lon="6.39843">
        <ele>1888</ele>
        <time>2022-08-06T09:08:29Z</time>
      </trkpt>
      <trkpt lat="45.48943" lon="6.39836">
        <ele>1890</ele>
        <time>2022-08-06T09:08:39Z</time>
      </trkpt>
      <trkpt lat="45.48949" lon="6.39837">
        <ele>1891</ele>
        <time>2022-08-06T09:08:49Z</time>
      </trkpt>
      <trkpt lat="45.48953" lon="6.39831">
        <ele>1893</ele>
        <time>2022-08-06T09:08:59Z</time>
      </trkpt>
      <trkpt lat="45.48956" lon="6.39825">
        <ele>1894</ele>
        <time>2022-08-06T09:09:09Z</time>
      </trkpt>
      <trkpt lat="45.48958" lon="6.39818">
        <ele>1895</ele>
        <time>2022-08-06T09:09:19Z</time>
      </trkpt>
      <trkpt lat="45.48963" lon="6.39813">
        <ele>1896</ele>
        <time>2022-08-06T09:09:40Z</time>
      </trkpt>
      <trkpt lat="45.48965" lon="6.39807">
        <ele>1897</ele>
        <time>2022-08-06T09:10:50Z</time>
      </trkpt>
      <trkpt lat="45.48973" lon="6.39794">
        <ele>1897</ele>
        <time>2022-08-06T09:11:05Z</time>
      </trkpt>
      <trkpt lat="45.48976" lon="6.39784">
        <ele>1898</ele>
        <time>2022-08-06T09:11:15Z</time>
      </trkpt>
      <trkpt lat="45.4898" lon="6.39776">
        <ele>1899</ele>
        <time>2022-08-06T09:11:25Z</time>
      </trkpt>
      <trkpt lat="45.48981" lon="6.39768">
        <ele>1900</ele>
        <time>2022-08-06T09:11:35Z</time>
      </trkpt>
      <trkpt lat="45.48986" lon="6.39761">
        <ele>1901</ele>
        <time>2022-08-06T09:11:45Z</time>
      </trkpt>
      <trkpt lat="45.48992" lon="6.39724">
        <ele>1904</ele>
        <time>2022-08-06T09:12:23Z</time>
      </trkpt>
      <trkpt lat="45.48993" lon="6.39711">
        <ele>1905</ele>
        <time>2022-08-06T09:12:35Z</time>
      </trkpt>
      <trkpt lat="45.48993" lon="6.39703">
        <ele>1906</ele>
        <time>2022-08-06T09:12:45Z</time>
      </trkpt>
      <trkpt lat="45.48994" lon="6.39689">
        <ele>1909</ele>
        <time>2022-08-06T09:13:05Z</time>
      </trkpt>
      <trkpt lat="45.48996" lon="6.39663">
        <ele>1913</ele>
        <time>2022-08-06T09:13:40Z</time>
      </trkpt>
      <trkpt lat="45.48995" lon="6.39656">
        <ele>1914</ele>
        <time>2022-08-06T09:13:50Z</time>
      </trkpt>
      <trkpt lat="45.48997" lon="6.39648">
        <ele>1917</ele>
        <time>2022-08-06T09:14:05Z</time>
      </trkpt>
      <trkpt lat="45.48997" lon="6.39638">
        <ele>1918</ele>
        <time>2022-08-06T09:14:26Z</time>
      </trkpt>
      <trkpt lat="45.49" lon="6.39622">
        <ele>1920</ele>
        <time>2022-08-06T09:14:43Z</time>
      </trkpt>
      <trkpt lat="45.49002" lon="6.39612">
        <ele>1919</ele>
        <time>2022-08-06T09:14:53Z</time>
      </trkpt>
      <trkpt lat="45.49006" lon="6.39608">
        <ele>1920</ele>
        <time>2022-08-06T09:15:03Z</time>
      </trkpt>
      <trkpt lat="45.4901" lon="6.39602">
        <ele>1920</ele>
        <time>2022-08-06T09:15:13Z</time>
      </trkpt>
      <trkpt lat="45.49014" lon="6.39598">
        <ele>1923</ele>
        <time>2022-08-06T09:15:33Z</time>
      </trkpt>
      <trkpt lat="45.49017" lon="6.3959">
        <ele>1922</ele>
        <time>2022-08-06T09:15:43Z</time>
      </trkpt>
      <trkpt lat="45.49021" lon="6.39587">
        <ele>1925</ele>
        <time>2022-08-06T09:16:08Z</time>
      </trkpt>
      <trkpt lat="45.49023" lon="6.39577">
        <ele>1925</ele>
        <time>2022-08-06T09:16:23Z</time>
      </trkpt>
      <trkpt lat="45.49027" lon="6.39572">
        <ele>1925</ele>
        <time>2022-08-06T09:16:35Z</time>
      </trkpt>
      <trkpt lat="45.49036" lon="6.39566">
        <ele>1928</ele>
        <time>2022-08-06T09:17:02Z</time>
      </trkpt>
      <trkpt lat="45.49039" lon="6.39561">
        <ele>1929</ele>
        <time>2022-08-06T09:17:12Z</time>
      </trkpt>
      <trkpt lat="45.49042" lon="6.39553">
        <ele>1930</ele>
        <time>2022-08-06T09:17:22Z</time>
      </trkpt>
      <trkpt lat="45.49047" lon="6.39548">
        <ele>1931</ele>
        <time>2022-08-06T09:17:32Z</time>
      </trkpt>
      <trkpt lat="45.49052" lon="6.39547">
        <ele>1931</ele>
        <time>2022-08-06T09:17:42Z</time>
      </trkpt>
      <trkpt lat="45.49061" lon="6.39538">
        <ele>1933</ele>
        <time>2022-08-06T09:18:02Z</time>
      </trkpt>
      <trkpt lat="45.49074" lon="6.39524">
        <ele>1936</ele>
        <time>2022-08-06T09:18:32Z</time>
      </trkpt>
      <trkpt lat="45.49079" lon="6.3952">
        <ele>1937</ele>
        <time>2022-08-06T09:18:43Z</time>
      </trkpt>
      <trkpt lat="45.49083" lon="6.39511">
        <ele>1938</ele>
        <time>2022-08-06T09:18:54Z</time>
      </trkpt>
      <trkpt lat="45.49098" lon="6.395">
        <ele>1940</ele>
        <time>2022-08-06T09:19:24Z</time>
      </trkpt>
      <trkpt lat="45.491" lon="6.39492">
        <ele>1941</ele>
        <time>2022-08-06T09:19:34Z</time>
      </trkpt>
      <trkpt lat="45.49102" lon="6.39482">
        <ele>1942</ele>
        <time>2022-08-06T09:19:44Z</time>
      </trkpt>
      <trkpt lat="45.49106" lon="6.39477">
        <ele>1942</ele>
        <time>2022-08-06T09:19:54Z</time>
      </trkpt>
      <trkpt lat="45.49108" lon="6.39471">
        <ele>1942</ele>
        <time>2022-08-06T09:20:00Z</time>
      </trkpt>
      <trkpt lat="45.49112" lon="6.39465">
        <ele>1942</ele>
        <time>2022-08-06T09:20:10Z</time>
      </trkpt>
      <trkpt lat="45.49117" lon="6.3946">
        <ele>1943</ele>
        <time>2022-08-06T09:20:20Z</time>
      </trkpt>
      <trkpt lat="45.4912" lon="6.39453">
        <ele>1943</ele>
        <time>2022-08-06T09:20:35Z</time>
      </trkpt>
      <trkpt lat="45.49122" lon="6.39445">
        <ele>1944</ele>
        <time>2022-08-06T09:20:47Z</time>
      </trkpt>
      <trkpt lat="45.49126" lon="6.3944">
        <ele>1945</ele>
        <time>2022-08-06T09:20:59Z</time>
      </trkpt>
      <trkpt lat="45.4913" lon="6.39437">
        <ele>1947</ele>
        <time>2022-08-06T09:21:14Z</time>
      </trkpt>
      <trkpt lat="45.49132" lon="6.39431">
        <ele>1948</ele>
        <time>2022-08-06T09:21:29Z</time>
      </trkpt>
      <trkpt lat="45.49138" lon="6.39426">
        <ele>1949</ele>
        <time>2022-08-06T09:21:44Z</time>
      </trkpt>
      <trkpt lat="45.49141" lon="6.39419">
        <ele>1951</ele>
        <time>2022-08-06T09:21:59Z</time>
      </trkpt>
      <trkpt lat="45.49144" lon="6.39413">
        <ele>1952</ele>
        <time>2022-08-06T09:22:14Z</time>
      </trkpt>
      <trkpt lat="45.49147" lon="6.39404">
        <ele>1953</ele>
        <time>2022-08-06T09:22:29Z</time>
      </trkpt>
      <trkpt lat="45.49149" lon="6.39388">
        <ele>1958</ele>
        <time>2022-08-06T09:23:21Z</time>
      </trkpt>
      <trkpt lat="45.49148" lon="6.3938">
        <ele>1960</ele>
        <time>2022-08-06T09:23:36Z</time>
      </trkpt>
      <trkpt lat="45.49147" lon="6.39374">
        <ele>1962</ele>
        <time>2022-08-06T09:23:51Z</time>
      </trkpt>
      <trkpt lat="45.49151" lon="6.3937">
        <ele>1964</ele>
        <time>2022-08-06T09:24:26Z</time>
      </trkpt>
      <trkpt lat="45.49154" lon="6.39362">
        <ele>1966</ele>
        <time>2022-08-06T09:24:41Z</time>
      </trkpt>
      <trkpt lat="45.49153" lon="6.39356">
        <ele>1968</ele>
        <time>2022-08-06T09:24:51Z</time>
      </trkpt>
      <trkpt lat="45.4915" lon="6.3935">
        <ele>1969</ele>
        <time>2022-08-06T09:25:02Z</time>
      </trkpt>
      <trkpt lat="45.49148" lon="6.39344">
        <ele>1970</ele>
        <time>2022-08-06T09:25:17Z</time>
      </trkpt>
      <trkpt lat="45.49151" lon="6.39338">
        <ele>1973</ele>
        <time>2022-08-06T09:25:37Z</time>
      </trkpt>
      <trkpt lat="45.49153" lon="6.39333">
        <ele>1974</ele>
        <time>2022-08-06T09:25:47Z</time>
      </trkpt>
      <trkpt lat="45.49151" lon="6.39317">
        <ele>1978</ele>
        <time>2022-08-06T09:26:17Z</time>
      </trkpt>
      <trkpt lat="45.49151" lon="6.3931">
        <ele>1980</ele>
        <time>2022-08-06T09:26:32Z</time>
      </trkpt>
      <trkpt lat="45.49148" lon="6.39303">
        <ele>1982</ele>
        <time>2022-08-06T09:26:47Z</time>
      </trkpt>
      <trkpt lat="45.49146" lon="6.39297">
        <ele>1983</ele>
        <time>2022-08-06T09:27:03Z</time>
      </trkpt>
      <trkpt lat="45.49145" lon="6.3929">
        <ele>1985</ele>
        <time>2022-08-06T09:27:15Z</time>
      </trkpt>
      <trkpt lat="45.49145" lon="6.39283">
        <ele>1988</ele>
        <time>2022-08-06T09:27:35Z</time>
      </trkpt>
      <trkpt lat="45.49148" lon="6.39276">
        <ele>1991</ele>
        <time>2022-08-06T09:28:00Z</time>
      </trkpt>
      <trkpt lat="45.49153" lon="6.39273">
        <ele>1993</ele>
        <time>2022-08-06T09:28:30Z</time>
      </trkpt>
      <trkpt lat="45.49161" lon="6.39276">
        <ele>1995</ele>
        <time>2022-08-06T09:29:58Z</time>
      </trkpt>
      <trkpt lat="45.49166" lon="6.39279">
        <ele>1997</ele>
        <time>2022-08-06T09:30:13Z</time>
      </trkpt>
      <trkpt lat="45.49171" lon="6.39281">
        <ele>1998</ele>
        <time>2022-08-06T09:30:58Z</time>
      </trkpt>
      <trkpt lat="45.49177" lon="6.39282">
        <ele>2000</ele>
        <time>2022-08-06T09:31:14Z</time>
      </trkpt>
      <trkpt lat="45.49182" lon="6.39283">
        <ele>2001</ele>
        <time>2022-08-06T09:31:39Z</time>
      </trkpt>
      <trkpt lat="45.49186" lon="6.3928">
        <ele>2004</ele>
        <time>2022-08-06T09:31:59Z</time>
      </trkpt>
      <trkpt lat="45.49197" lon="6.39284">
        <ele>2008</ele>
        <time>2022-08-06T09:32:34Z</time>
      </trkpt>
      <trkpt lat="45.49201" lon="6.39287">
        <ele>2009</ele>
        <time>2022-08-06T09:32:49Z</time>
      </trkpt>
      <trkpt lat="45.49205" lon="6.3929">
        <ele>2010</ele>
        <time>2022-08-06T09:32:59Z</time>
      </trkpt>
      <trkpt lat="45.49215" lon="6.39287">
        <ele>2015</ele>
        <time>2022-08-06T09:33:31Z</time>
      </trkpt>
      <trkpt lat="45.49219" lon="6.39285">
        <ele>2018</ele>
        <time>2022-08-06T09:33:51Z</time>
      </trkpt>
      <trkpt lat="45.49224" lon="6.39288">
        <ele>2019</ele>
        <time>2022-08-06T09:34:01Z</time>
      </trkpt>
      <trkpt lat="45.49236" lon="6.39294">
        <ele>2020</ele>
        <time>2022-08-06T09:34:22Z</time>
      </trkpt>
      <trkpt lat="45.4924" lon="6.39296">
        <ele>2022</ele>
        <time>2022-08-06T09:34:32Z</time>
      </trkpt>
      <trkpt lat="45.49245" lon="6.393">
        <ele>2022</ele>
        <time>2022-08-06T09:34:38Z</time>
      </trkpt>
      <trkpt lat="45.49251" lon="6.39303">
        <ele>2023</ele>
        <time>2022-08-06T09:34:47Z</time>
      </trkpt>
      <trkpt lat="45.49254" lon="6.39294">
        <ele>2024</ele>
        <time>2022-08-06T09:34:58Z</time>
      </trkpt>
      <trkpt lat="45.49254" lon="6.39285">
        <ele>2026</ele>
        <time>2022-08-06T09:35:08Z</time>
      </trkpt>
      <trkpt lat="45.49258" lon="6.39278">
        <ele>2027</ele>
        <time>2022-08-06T09:35:18Z</time>
      </trkpt>
      <trkpt lat="45.49242" lon="6.39269">
        <ele>2030</ele>
        <time>2022-08-06T09:35:56Z</time>
      </trkpt>
      <trkpt lat="45.4924" lon="6.39263">
        <ele>2033</ele>
        <time>2022-08-06T09:36:16Z</time>
      </trkpt>
      <trkpt lat="45.49235" lon="6.39259">
        <ele>2034</ele>
        <time>2022-08-06T09:36:41Z</time>
      </trkpt>
      <trkpt lat="45.49227" lon="6.39256">
        <ele>2034</ele>
        <time>2022-08-06T09:37:01Z</time>
      </trkpt>
      <trkpt lat="45.49215" lon="6.39248">
        <ele>2033</ele>
        <time>2022-08-06T09:37:17Z</time>
      </trkpt>
      <trkpt lat="45.49217" lon="6.39252">
        <ele>2034</ele>
        <time>2022-08-06T09:40:51Z</time>
      </trkpt>
      <trkpt lat="45.49225" lon="6.39255">
        <ele>2034</ele>
        <time>2022-08-06T09:41:17Z</time>
      </trkpt>
      <trkpt lat="45.4923" lon="6.39254">
        <ele>2034</ele>
        <time>2022-08-06T09:41:22Z</time>
      </trkpt>
      <trkpt lat="45.49233" lon="6.39259">
        <ele>2034</ele>
        <time>2022-08-06T09:41:29Z</time>
      </trkpt>
      <trkpt lat="45.49237" lon="6.39261">
        <ele>2035</ele>
        <time>2022-08-06T09:43:05Z</time>
      </trkpt>
      <trkpt lat="45.4924" lon="6.39259">
        <ele>2034</ele>
        <time>2022-08-06T09:53:49Z</time>
      </trkpt>
      <trkpt lat="45.49248" lon="6.39253">
        <ele>2033</ele>
        <time>2022-08-06T09:54:02Z</time>
      </trkpt>
      <trkpt lat="45.49252" lon="6.39243">
        <ele>2032</ele>
        <time>2022-08-06T09:54:11Z</time>
      </trkpt>
      <trkpt lat="45.49252" lon="6.39236">
        <ele>2031</ele>
        <time>2022-08-06T09:54:19Z</time>
      </trkpt>
      <trkpt lat="45.4925" lon="6.39229">
        <ele>2029</ele>
        <time>2022-08-06T09:54:36Z</time>
      </trkpt>
      <trkpt lat="45.49251" lon="6.39221">
        <ele>2027</ele>
        <time>2022-08-06T09:55:16Z</time>
      </trkpt>
      <trkpt lat="45.49251" lon="6.39219">
        <ele>2027</ele>
        <time>2022-08-06T09:56:33Z</time>
      </trkpt>
      <trkpt lat="45.49251" lon="6.39211">
        <ele>2026</ele>
        <time>2022-08-06T09:57:09Z</time>
      </trkpt>
      <trkpt lat="45.49256" lon="6.39206">
        <ele>2026</ele>
        <time>2022-08-06T09:57:24Z</time>
      </trkpt>
      <trkpt lat="45.49259" lon="6.39199">
        <ele>2026</ele>
        <time>2022-08-06T09:57:39Z</time>
      </trkpt>
      <trkpt lat="45.49255" lon="6.39201">
        <ele>2026</ele>
        <time>2022-08-06T09:58:19Z</time>
      </trkpt>
      <trkpt lat="45.49253" lon="6.39209">
        <ele>2026</ele>
        <time>2022-08-06T09:58:34Z</time>
      </trkpt>
      <trkpt lat="45.49249" lon="6.39213">
        <ele>2026</ele>
        <time>2022-08-06T09:59:00Z</time>
      </trkpt>
      <trkpt lat="45.49244" lon="6.39213">
        <ele>2026</ele>
        <time>2022-08-06T09:59:26Z</time>
      </trkpt>
      <trkpt lat="45.49245" lon="6.39215">
        <ele>2025</ele>
        <time>2022-08-06T10:00:36Z</time>
      </trkpt>
      <trkpt lat="45.49248" lon="6.39219">
        <ele>2025</ele>
        <time>2022-08-06T10:01:34Z</time>
      </trkpt>
      <trkpt lat="45.4925" lon="6.39225">
        <ele>2026</ele>
        <time>2022-08-06T10:02:24Z</time>
      </trkpt>
      <trkpt lat="45.49256" lon="6.39225">
        <ele>2026</ele>
        <time>2022-08-06T10:05:25Z</time>
      </trkpt>
      <trkpt lat="45.49252" lon="6.39233">
        <ele>2029</ele>
        <time>2022-08-06T10:07:29Z</time>
      </trkpt>
      <trkpt lat="45.49248" lon="6.39238">
        <ele>2030</ele>
        <time>2022-08-06T10:07:44Z</time>
      </trkpt>
      <trkpt lat="45.49251" lon="6.39243">
        <ele>2031</ele>
        <time>2022-08-06T10:09:35Z</time>
      </trkpt>
      <trkpt lat="45.49248" lon="6.39251">
        <ele>2031</ele>
        <time>2022-08-06T10:09:45Z</time>
      </trkpt>
      <trkpt lat="45.49245" lon="6.39255">
        <ele>2032</ele>
        <time>2022-08-06T10:09:55Z</time>
      </trkpt>
      <trkpt lat="45.49241" lon="6.39259">
        <ele>2034</ele>
        <time>2022-08-06T10:10:05Z</time>
      </trkpt>
      <trkpt lat="45.49234" lon="6.39258">
        <ele>2035</ele>
        <time>2022-08-06T10:10:16Z</time>
      </trkpt>
      <trkpt lat="45.49236" lon="6.3926">
        <ele>2035</ele>
        <time>2022-08-06T10:11:47Z</time>
      </trkpt>
      <trkpt lat="45.49242" lon="6.39261">
        <ele>2035</ele>
        <time>2022-08-06T10:14:32Z</time>
      </trkpt>
      <trkpt lat="45.49245" lon="6.39256">
        <ele>2035</ele>
        <time>2022-08-06T10:14:42Z</time>
      </trkpt>
      <trkpt lat="45.4925" lon="6.39253">
        <ele>2034</ele>
        <time>2022-08-06T10:14:48Z</time>
      </trkpt>
      <trkpt lat="45.49252" lon="6.39244">
        <ele>2033</ele>
        <time>2022-08-06T10:14:58Z</time>
      </trkpt>
      <trkpt lat="45.49252" lon="6.39238">
        <ele>2034</ele>
        <time>2022-08-06T10:18:34Z</time>
      </trkpt>
      <trkpt lat="45.49251" lon="6.39233">
        <ele>2031</ele>
        <time>2022-08-06T10:31:47Z</time>
      </trkpt>
      <trkpt lat="45.49254" lon="6.39225">
        <ele>2030</ele>
        <time>2022-08-06T10:31:58Z</time>
      </trkpt>
      <trkpt lat="45.49251" lon="6.39226">
        <ele>2029</ele>
        <time>2022-08-06T10:32:46Z</time>
      </trkpt>
      <trkpt lat="45.49252" lon="6.39224">
        <ele>2029</ele>
        <time>2022-08-06T10:33:31Z</time>
      </trkpt>
      <trkpt lat="45.49251" lon="6.39224">
        <ele>2029</ele>
        <time>2022-08-06T10:34:23Z</time>
      </trkpt>
      <trkpt lat="45.4925" lon="6.3923">
        <ele>2031</ele>
        <time>2022-08-06T10:34:39Z</time>
      </trkpt>
      <trkpt lat="45.49251" lon="6.39237">
        <ele>2032</ele>
        <time>2022-08-06T10:34:49Z</time>
      </trkpt>
      <trkpt lat="45.49252" lon="6.39236">
        <ele>2033</ele>
        <time>2022-08-06T10:37:30Z</time>
      </trkpt>
      <trkpt lat="45.49253" lon="6.39226">
        <ele>2031</ele>
        <time>2022-08-06T10:37:55Z</time>
      </trkpt>
      <trkpt lat="45.49252" lon="6.39226">
        <ele>2029</ele>
        <time>2022-08-06T10:38:47Z</time>
      </trkpt>
      <trkpt lat="45.49251" lon="6.39233">
        <ele>2032</ele>
        <time>2022-08-06T10:39:02Z</time>
      </trkpt>
      <trkpt lat="45.49252" lon="6.3924">
        <ele>2033</ele>
        <time>2022-08-06T10:39:22Z</time>
      </trkpt>
      <trkpt lat="45.49248" lon="6.3924">
        <ele>2034</ele>
        <time>2022-08-06T10:44:01Z</time>
      </trkpt>
      <trkpt lat="45.4924" lon="6.39237">
        <ele>2033</ele>
        <time>2022-08-06T10:44:52Z</time>
      </trkpt>
      <trkpt lat="45.49224" lon="6.39226">
        <ele>2033</ele>
        <time>2022-08-06T10:45:28Z</time>
      </trkpt>
      <trkpt lat="45.49219" lon="6.39226">
        <ele>2033</ele>
        <time>2022-08-06T10:45:32Z</time>
      </trkpt>
      <trkpt lat="45.49211" lon="6.39222">
        <ele>2032</ele>
        <time>2022-08-06T10:45:42Z</time>
      </trkpt>
      <trkpt lat="45.49201" lon="6.3922">
        <ele>2030</ele>
        <time>2022-08-06T10:45:54Z</time>
      </trkpt>
      <trkpt lat="45.4919" lon="6.39219">
        <ele>2031</ele>
        <time>2022-08-06T10:46:11Z</time>
      </trkpt>
      <trkpt lat="45.49197" lon="6.39222">
        <ele>2030</ele>
        <time>2022-08-06T10:46:36Z</time>
      </trkpt>
      <trkpt lat="45.49206" lon="6.39222">
        <ele>2030</ele>
        <time>2022-08-06T10:46:46Z</time>
      </trkpt>
      <trkpt lat="45.49213" lon="6.39226">
        <ele>2030</ele>
        <time>2022-08-06T10:46:59Z</time>
      </trkpt>
      <trkpt lat="45.49217" lon="6.39226">
        <ele>2031</ele>
        <time>2022-08-06T10:47:05Z</time>
      </trkpt>
      <trkpt lat="45.49225" lon="6.39228">
        <ele>2031</ele>
        <time>2022-08-06T10:47:15Z</time>
      </trkpt>
      <trkpt lat="45.49238" lon="6.39238">
        <ele>2032</ele>
        <time>2022-08-06T10:47:32Z</time>
      </trkpt>
      <trkpt lat="45.49244" lon="6.39242">
        <ele>2032</ele>
        <time>2022-08-06T10:47:41Z</time>
      </trkpt>
      <trkpt lat="45.49244" lon="6.39239">
        <ele>2032</ele>
        <time>2022-08-06T10:50:14Z</time>
      </trkpt>
      <trkpt lat="45.49235" lon="6.39234">
        <ele>2031</ele>
        <time>2022-08-06T10:50:23Z</time>
      </trkpt>
      <trkpt lat="45.49227" lon="6.39227">
        <ele>2031</ele>
        <time>2022-08-06T10:50:33Z</time>
      </trkpt>
      <trkpt lat="45.49221" lon="6.39226">
        <ele>2031</ele>
        <time>2022-08-06T10:50:40Z</time>
      </trkpt>
      <trkpt lat="45.49212" lon="6.39223">
        <ele>2030</ele>
        <time>2022-08-06T10:50:49Z</time>
      </trkpt>
      <trkpt lat="45.49206" lon="6.39221">
        <ele>2029</ele>
        <time>2022-08-06T10:50:57Z</time>
      </trkpt>
      <trkpt lat="45.49202" lon="6.39222">
        <ele>2028</ele>
        <time>2022-08-06T10:51:01Z</time>
      </trkpt>
      <trkpt lat="45.49195" lon="6.39219">
        <ele>2028</ele>
        <time>2022-08-06T10:51:10Z</time>
      </trkpt>
      <trkpt lat="45.49188" lon="6.39205">
        <ele>2028</ele>
        <time>2022-08-06T10:51:41Z</time>
      </trkpt>
      <trkpt lat="45.49188" lon="6.39198">
        <ele>2029</ele>
        <time>2022-08-06T10:52:01Z</time>
      </trkpt>
      <trkpt lat="45.49188" lon="6.39191">
        <ele>2028</ele>
        <time>2022-08-06T10:52:11Z</time>
      </trkpt>
      <trkpt lat="45.49177" lon="6.3918">
        <ele>2030</ele>
        <time>2022-08-06T10:52:31Z</time>
      </trkpt>
      <trkpt lat="45.49173" lon="6.39166">
        <ele>2031</ele>
        <time>2022-08-06T10:52:48Z</time>
      </trkpt>
      <trkpt lat="45.49176" lon="6.3916">
        <ele>2033</ele>
        <time>2022-08-06T10:52:58Z</time>
      </trkpt>
      <trkpt lat="45.49175" lon="6.39153">
        <ele>2035</ele>
        <time>2022-08-06T10:53:09Z</time>
      </trkpt>
      <trkpt lat="45.49172" lon="6.39149">
        <ele>2036</ele>
        <time>2022-08-06T10:53:19Z</time>
      </trkpt>
      <trkpt lat="45.49167" lon="6.39145">
        <ele>2039</ele>
        <time>2022-08-06T10:53:34Z</time>
      </trkpt>
      <trkpt lat="45.49165" lon="6.39139">
        <ele>2041</ele>
        <time>2022-08-06T10:53:49Z</time>
      </trkpt>
      <trkpt lat="45.4916" lon="6.39133">
        <ele>2043</ele>
        <time>2022-08-06T10:54:04Z</time>
      </trkpt>
      <trkpt lat="45.49165" lon="6.39129">
        <ele>2045</ele>
        <time>2022-08-06T10:54:14Z</time>
      </trkpt>
      <trkpt lat="45.49165" lon="6.39117">
        <ele>2046</ele>
        <time>2022-08-06T10:54:24Z</time>
      </trkpt>
      <trkpt lat="45.49166" lon="6.3911">
        <ele>2046</ele>
        <time>2022-08-06T10:54:32Z</time>
      </trkpt>
      <trkpt lat="45.49164" lon="6.39103">
        <ele>2046</ele>
        <time>2022-08-06T10:54:37Z</time>
      </trkpt>
      <trkpt lat="45.49165" lon="6.39095">
        <ele>2045</ele>
        <time>2022-08-06T10:54:50Z</time>
      </trkpt>
      <trkpt lat="45.49168" lon="6.3909">
        <ele>2045</ele>
        <time>2022-08-06T10:55:05Z</time>
      </trkpt>
      <trkpt lat="45.4917" lon="6.39084">
        <ele>2045</ele>
        <time>2022-08-06T10:55:10Z</time>
      </trkpt>
      <trkpt lat="45.49167" lon="6.39079">
        <ele>2045</ele>
        <time>2022-08-06T10:55:29Z</time>
      </trkpt>
      <trkpt lat="45.4917" lon="6.39073">
        <ele>2045</ele>
        <time>2022-08-06T10:55:39Z</time>
      </trkpt>
      <trkpt lat="45.49175" lon="6.39069">
        <ele>2045</ele>
        <time>2022-08-06T10:55:49Z</time>
      </trkpt>
      <trkpt lat="45.49172" lon="6.39063">
        <ele>2047</ele>
        <time>2022-08-06T10:55:59Z</time>
      </trkpt>
      <trkpt lat="45.49175" lon="6.39056">
        <ele>2050</ele>
        <time>2022-08-06T10:56:14Z</time>
      </trkpt>
      <trkpt lat="45.49177" lon="6.39046">
        <ele>2051</ele>
        <time>2022-08-06T10:56:24Z</time>
      </trkpt>
      <trkpt lat="45.49175" lon="6.39036">
        <ele>2053</ele>
        <time>2022-08-06T10:56:33Z</time>
      </trkpt>
      <trkpt lat="45.49173" lon="6.3903">
        <ele>2052</ele>
        <time>2022-08-06T10:56:37Z</time>
      </trkpt>
      <trkpt lat="45.49173" lon="6.39023">
        <ele>2052</ele>
        <time>2022-08-06T10:56:42Z</time>
      </trkpt>
      <trkpt lat="45.49176" lon="6.39018">
        <ele>2052</ele>
        <time>2022-08-06T10:56:46Z</time>
      </trkpt>
      <trkpt lat="45.49175" lon="6.39008">
        <ele>2054</ele>
        <time>2022-08-06T10:56:58Z</time>
      </trkpt>
      <trkpt lat="45.49174" lon="6.39002">
        <ele>2055</ele>
        <time>2022-08-06T10:57:03Z</time>
      </trkpt>
      <trkpt lat="45.49175" lon="6.38983">
        <ele>2056</ele>
        <time>2022-08-06T10:57:18Z</time>
      </trkpt>
      <trkpt lat="45.49176" lon="6.38974">
        <ele>2056</ele>
        <time>2022-08-06T10:57:26Z</time>
      </trkpt>
      <trkpt lat="45.49179" lon="6.38966">
        <ele>2056</ele>
        <time>2022-08-06T10:57:33Z</time>
      </trkpt>
      <trkpt lat="45.4918" lon="6.38953">
        <ele>2059</ele>
        <time>2022-08-06T10:57:50Z</time>
      </trkpt>
      <trkpt lat="45.49182" lon="6.38947">
        <ele>2059</ele>
        <time>2022-08-06T10:57:54Z</time>
      </trkpt>
      <trkpt lat="45.49182" lon="6.38934">
        <ele>2059</ele>
        <time>2022-08-06T10:58:02Z</time>
      </trkpt>
      <trkpt lat="45.4918" lon="6.3892">
        <ele>2058</ele>
        <time>2022-08-06T10:58:12Z</time>
      </trkpt>
      <trkpt lat="45.49186" lon="6.38914">
        <ele>2058</ele>
        <time>2022-08-06T10:58:24Z</time>
      </trkpt>
      <trkpt lat="45.49194" lon="6.38911">
        <ele>2058</ele>
        <time>2022-08-06T10:58:34Z</time>
      </trkpt>
      <trkpt lat="45.49199" lon="6.38911">
        <ele>2059</ele>
        <time>2022-08-06T10:58:44Z</time>
      </trkpt>
      <trkpt lat="45.49198" lon="6.38904">
        <ele>2061</ele>
        <time>2022-08-06T11:01:32Z</time>
      </trkpt>
      <trkpt lat="45.49199" lon="6.38898">
        <ele>2062</ele>
        <time>2022-08-06T11:01:38Z</time>
      </trkpt>
      <trkpt lat="45.49198" lon="6.38888">
        <ele>2063</ele>
        <time>2022-08-06T11:01:48Z</time>
      </trkpt>
      <trkpt lat="45.49192" lon="6.38877">
        <ele>2064</ele>
        <time>2022-08-06T11:01:59Z</time>
      </trkpt>
      <trkpt lat="45.49188" lon="6.38874">
        <ele>2064</ele>
        <time>2022-08-06T11:02:03Z</time>
      </trkpt>
      <trkpt lat="45.49184" lon="6.38875">
        <ele>2064</ele>
        <time>2022-08-06T11:02:08Z</time>
      </trkpt>
      <trkpt lat="45.49181" lon="6.38868">
        <ele>2064</ele>
        <time>2022-08-06T11:02:18Z</time>
      </trkpt>
      <trkpt lat="45.49177" lon="6.3887">
        <ele>2063</ele>
        <time>2022-08-06T11:02:38Z</time>
      </trkpt>
      <trkpt lat="45.49173" lon="6.38862">
        <ele>2058</ele>
        <time>2022-08-06T11:02:53Z</time>
      </trkpt>
      <trkpt lat="45.49171" lon="6.38855">
        <ele>2056</ele>
        <time>2022-08-06T11:03:03Z</time>
      </trkpt>
      <trkpt lat="45.49164" lon="6.38847">
        <ele>2054</ele>
        <time>2022-08-06T11:03:14Z</time>
      </trkpt>
      <trkpt lat="45.49159" lon="6.38845">
        <ele>2053</ele>
        <time>2022-08-06T11:03:22Z</time>
      </trkpt>
      <trkpt lat="45.49156" lon="6.38835">
        <ele>2054</ele>
        <time>2022-08-06T11:03:37Z</time>
      </trkpt>
      <trkpt lat="45.49149" lon="6.38829">
        <ele>2054</ele>
        <time>2022-08-06T11:03:45Z</time>
      </trkpt>
      <trkpt lat="45.49143" lon="6.38831">
        <ele>2053</ele>
        <time>2022-08-06T11:03:54Z</time>
      </trkpt>
      <trkpt lat="45.49139" lon="6.38828">
        <ele>2052</ele>
        <time>2022-08-06T11:03:59Z</time>
      </trkpt>
      <trkpt lat="45.4913" lon="6.38825">
        <ele>2052</ele>
        <time>2022-08-06T11:04:09Z</time>
      </trkpt>
      <trkpt lat="45.49127" lon="6.38826">
        <ele>2053</ele>
        <time>2022-08-06T11:05:15Z</time>
      </trkpt>
      <trkpt lat="45.4912" lon="6.38826">
        <ele>2053</ele>
        <time>2022-08-06T11:05:25Z</time>
      </trkpt>
      <trkpt lat="45.49115" lon="6.38829">
        <ele>2054</ele>
        <time>2022-08-06T11:05:32Z</time>
      </trkpt>
      <trkpt lat="45.49109" lon="6.38828">
        <ele>2056</ele>
        <time>2022-08-06T11:05:47Z</time>
      </trkpt>
      <trkpt lat="45.49105" lon="6.38825">
        <ele>2060</ele>
        <time>2022-08-06T11:06:18Z</time>
      </trkpt>
      <trkpt lat="45.49102" lon="6.38832">
        <ele>2061</ele>
        <time>2022-08-06T11:06:28Z</time>
      </trkpt>
      <trkpt lat="45.49097" lon="6.3883">
        <ele>2064</ele>
        <time>2022-08-06T11:06:48Z</time>
      </trkpt>
      <trkpt lat="45.49093" lon="6.38826">
        <ele>2066</ele>
        <time>2022-08-06T11:07:03Z</time>
      </trkpt>
      <trkpt lat="45.49095" lon="6.38819">
        <ele>2068</ele>
        <time>2022-08-06T11:07:18Z</time>
      </trkpt>
      <trkpt lat="45.49098" lon="6.38813">
        <ele>2070</ele>
        <time>2022-08-06T11:07:28Z</time>
      </trkpt>
      <trkpt lat="45.49094" lon="6.38805">
        <ele>2071</ele>
        <time>2022-08-06T11:07:38Z</time>
      </trkpt>
      <trkpt lat="45.49088" lon="6.3879">
        <ele>2077</ele>
        <time>2022-08-06T11:08:17Z</time>
      </trkpt>
      <trkpt lat="45.49083" lon="6.38784">
        <ele>2079</ele>
        <time>2022-08-06T11:08:32Z</time>
      </trkpt>
      <trkpt lat="45.49078" lon="6.38778">
        <ele>2080</ele>
        <time>2022-08-06T11:08:42Z</time>
      </trkpt>
      <trkpt lat="45.49072" lon="6.3878">
        <ele>2081</ele>
        <time>2022-08-06T11:08:52Z</time>
      </trkpt>
      <trkpt lat="45.4907" lon="6.38775">
        <ele>2085</ele>
        <time>2022-08-06T11:09:17Z</time>
      </trkpt>
      <trkpt lat="45.49066" lon="6.38771">
        <ele>2087</ele>
        <time>2022-08-06T11:09:32Z</time>
      </trkpt>
      <trkpt lat="45.49062" lon="6.38767">
        <ele>2090</ele>
        <time>2022-08-06T11:09:53Z</time>
      </trkpt>
      <trkpt lat="45.4906" lon="6.38754">
        <ele>2097</ele>
        <time>2022-08-06T11:10:32Z</time>
      </trkpt>
      <trkpt lat="45.49057" lon="6.3875">
        <ele>2097</ele>
        <time>2022-08-06T11:10:39Z</time>
      </trkpt>
      <trkpt lat="45.49058" lon="6.38743">
        <ele>2101</ele>
        <time>2022-08-06T11:11:09Z</time>
      </trkpt>
      <trkpt lat="45.49054" lon="6.3874">
        <ele>2104</ele>
        <time>2022-08-06T11:11:24Z</time>
      </trkpt>
      <trkpt lat="45.49052" lon="6.38733">
        <ele>2109</ele>
        <time>2022-08-06T11:12:00Z</time>
      </trkpt>
      <trkpt lat="45.49047" lon="6.3873">
        <ele>2111</ele>
        <time>2022-08-06T11:12:17Z</time>
      </trkpt>
      <trkpt lat="45.49037" lon="6.38725">
        <ele>2117</ele>
        <time>2022-08-06T11:12:58Z</time>
      </trkpt>
      <trkpt lat="45.49035" lon="6.38717">
        <ele>2120</ele>
        <time>2022-08-06T11:13:23Z</time>
      </trkpt>
      <trkpt lat="45.49029" lon="6.38717">
        <ele>2124</ele>
        <time>2022-08-06T11:13:43Z</time>
      </trkpt>
      <trkpt lat="45.49024" lon="6.38714">
        <ele>2128</ele>
        <time>2022-08-06T11:14:22Z</time>
      </trkpt>
      <trkpt lat="45.49021" lon="6.38708">
        <ele>2134</ele>
        <time>2022-08-06T11:15:02Z</time>
      </trkpt>
      <trkpt lat="45.49021" lon="6.38701">
        <ele>2137</ele>
        <time>2022-08-06T11:15:32Z</time>
      </trkpt>
      <trkpt lat="45.49018" lon="6.38696">
        <ele>2140</ele>
        <time>2022-08-06T11:15:57Z</time>
      </trkpt>
      <trkpt lat="45.49016" lon="6.3869">
        <ele>2144</ele>
        <time>2022-08-06T11:16:25Z</time>
      </trkpt>
      <trkpt lat="45.49012" lon="6.38685">
        <ele>2146</ele>
        <time>2022-08-06T11:16:40Z</time>
      </trkpt>
      <trkpt lat="45.49017" lon="6.3868">
        <ele>2149</ele>
        <time>2022-08-06T11:16:55Z</time>
      </trkpt>
      <trkpt lat="45.49019" lon="6.38675">
        <ele>2151</ele>
        <time>2022-08-06T11:17:10Z</time>
      </trkpt>
      <trkpt lat="45.49018" lon="6.38668">
        <ele>2153</ele>
        <time>2022-08-06T11:17:25Z</time>
      </trkpt>
      <trkpt lat="45.49015" lon="6.38661">
        <ele>2155</ele>
        <time>2022-08-06T11:17:40Z</time>
      </trkpt>
      <trkpt lat="45.49011" lon="6.38653">
        <ele>2157</ele>
        <time>2022-08-06T11:18:00Z</time>
      </trkpt>
      <trkpt lat="45.49008" lon="6.38657">
        <ele>2160</ele>
        <time>2022-08-06T11:18:21Z</time>
      </trkpt>
      <trkpt lat="45.49003" lon="6.3865">
        <ele>2161</ele>
        <time>2022-08-06T11:18:38Z</time>
      </trkpt>
      <trkpt lat="45.48998" lon="6.38642">
        <ele>2162</ele>
        <time>2022-08-06T11:18:48Z</time>
      </trkpt>
      <trkpt lat="45.48994" lon="6.38639">
        <ele>2162</ele>
        <time>2022-08-06T11:18:54Z</time>
      </trkpt>
      <trkpt lat="45.48992" lon="6.38633">
        <ele>2163</ele>
        <time>2022-08-06T11:19:01Z</time>
      </trkpt>
      <trkpt lat="45.48987" lon="6.3862">
        <ele>2168</ele>
        <time>2022-08-06T11:19:41Z</time>
      </trkpt>
      <trkpt lat="45.48987" lon="6.38611">
        <ele>2171</ele>
        <time>2022-08-06T11:20:01Z</time>
      </trkpt>
      <trkpt lat="45.4898" lon="6.38598">
        <ele>2176</ele>
        <time>2022-08-06T11:20:33Z</time>
      </trkpt>
      <trkpt lat="45.48978" lon="6.38591">
        <ele>2178</ele>
        <time>2022-08-06T11:20:54Z</time>
      </trkpt>
      <trkpt lat="45.48973" lon="6.38589">
        <ele>2179</ele>
        <time>2022-08-06T11:21:09Z</time>
      </trkpt>
      <trkpt lat="45.4897" lon="6.38579">
        <ele>2181</ele>
        <time>2022-08-06T11:21:25Z</time>
      </trkpt>
      <trkpt lat="45.4897" lon="6.38572">
        <ele>2182</ele>
        <time>2022-08-06T11:21:35Z</time>
      </trkpt>
      <trkpt lat="45.48965" lon="6.38566">
        <ele>2184</ele>
        <time>2022-08-06T11:21:50Z</time>
      </trkpt>
      <trkpt lat="45.48962" lon="6.3857">
        <ele>2187</ele>
        <time>2022-08-06T11:22:05Z</time>
      </trkpt>
      <trkpt lat="45.48958" lon="6.38566">
        <ele>2191</ele>
        <time>2022-08-06T11:22:37Z</time>
      </trkpt>
      <trkpt lat="45.48957" lon="6.38559">
        <ele>2193</ele>
        <time>2022-08-06T11:22:58Z</time>
      </trkpt>
      <trkpt lat="45.48951" lon="6.38558">
        <ele>2197</ele>
        <time>2022-08-06T11:23:23Z</time>
      </trkpt>
      <trkpt lat="45.48948" lon="6.38552">
        <ele>2201</ele>
        <time>2022-08-06T11:23:53Z</time>
      </trkpt>
      <trkpt lat="45.48947" lon="6.38545">
        <ele>2203</ele>
        <time>2022-08-06T11:24:08Z</time>
      </trkpt>
      <trkpt lat="45.48944" lon="6.38539">
        <ele>2205</ele>
        <time>2022-08-06T11:24:18Z</time>
      </trkpt>
      <trkpt lat="45.48941" lon="6.38533">
        <ele>2206</ele>
        <time>2022-08-06T11:24:28Z</time>
      </trkpt>
      <trkpt lat="45.48938" lon="6.38523">
        <ele>2208</ele>
        <time>2022-08-06T11:24:45Z</time>
      </trkpt>
      <trkpt lat="45.48931" lon="6.38514">
        <ele>2212</ele>
        <time>2022-08-06T11:25:11Z</time>
      </trkpt>
      <trkpt lat="45.48926" lon="6.38511">
        <ele>2214</ele>
        <time>2022-08-06T11:25:26Z</time>
      </trkpt>
      <trkpt lat="45.48928" lon="6.38503">
        <ele>2216</ele>
        <time>2022-08-06T11:26:01Z</time>
      </trkpt>
      <trkpt lat="45.48922" lon="6.38498">
        <ele>2218</ele>
        <time>2022-08-06T11:26:11Z</time>
      </trkpt>
      <trkpt lat="45.48918" lon="6.38494">
        <ele>2219</ele>
        <time>2022-08-06T11:26:21Z</time>
      </trkpt>
      <trkpt lat="45.48902" lon="6.38489">
        <ele>2224</ele>
        <time>2022-08-06T11:27:00Z</time>
      </trkpt>
      <trkpt lat="45.48898" lon="6.38483">
        <ele>2225</ele>
        <time>2022-08-06T11:27:10Z</time>
      </trkpt>
      <trkpt lat="45.48892" lon="6.38479">
        <ele>2224</ele>
        <time>2022-08-06T11:27:20Z</time>
      </trkpt>
      <trkpt lat="45.48888" lon="6.38474">
        <ele>2224</ele>
        <time>2022-08-06T11:27:30Z</time>
      </trkpt>
      <trkpt lat="45.48885" lon="6.38469">
        <ele>2225</ele>
        <time>2022-08-06T11:27:45Z</time>
      </trkpt>
      <trkpt lat="45.48884" lon="6.38462">
        <ele>2225</ele>
        <time>2022-08-06T11:28:00Z</time>
      </trkpt>
      <trkpt lat="45.48882" lon="6.38455">
        <ele>2227</ele>
        <time>2022-08-06T11:28:15Z</time>
      </trkpt>
      <trkpt lat="45.4888" lon="6.38448">
        <ele>2229</ele>
        <time>2022-08-06T11:28:30Z</time>
      </trkpt>
      <trkpt lat="45.48877" lon="6.3844">
        <ele>2230</ele>
        <time>2022-08-06T11:28:45Z</time>
      </trkpt>
      <trkpt lat="45.48873" lon="6.38434">
        <ele>2233</ele>
        <time>2022-08-06T11:29:13Z</time>
      </trkpt>
      <trkpt lat="45.48873" lon="6.38427">
        <ele>2235</ele>
        <time>2022-08-06T11:29:28Z</time>
      </trkpt>
      <trkpt lat="45.48868" lon="6.38413">
        <ele>2243</ele>
        <time>2022-08-06T11:30:33Z</time>
      </trkpt>
      <trkpt lat="45.4887" lon="6.38407">
        <ele>2246</ele>
        <time>2022-08-06T11:30:54Z</time>
      </trkpt>
      <trkpt lat="45.48867" lon="6.38403">
        <ele>2247</ele>
        <time>2022-08-06T11:31:11Z</time>
      </trkpt>
      <trkpt lat="45.48863" lon="6.38403">
        <ele>2249</ele>
        <time>2022-08-06T11:31:21Z</time>
      </trkpt>
      <trkpt lat="45.48852" lon="6.38395">
        <ele>2254</ele>
        <time>2022-08-06T11:32:01Z</time>
      </trkpt>
      <trkpt lat="45.48848" lon="6.38392">
        <ele>2256</ele>
        <time>2022-08-06T11:32:16Z</time>
      </trkpt>
      <trkpt lat="45.48846" lon="6.38386">
        <ele>2259</ele>
        <time>2022-08-06T11:32:41Z</time>
      </trkpt>
      <trkpt lat="45.48842" lon="6.38382">
        <ele>2263</ele>
        <time>2022-08-06T11:33:07Z</time>
      </trkpt>
      <trkpt lat="45.48838" lon="6.3838">
        <ele>2264</ele>
        <time>2022-08-06T11:33:19Z</time>
      </trkpt>
      <trkpt lat="45.48828" lon="6.38378">
        <ele>2267</ele>
        <time>2022-08-06T11:33:49Z</time>
      </trkpt>
      <trkpt lat="45.4882" lon="6.38369">
        <ele>2273</ele>
        <time>2022-08-06T11:34:34Z</time>
      </trkpt>
      <trkpt lat="45.48816" lon="6.38369">
        <ele>2275</ele>
        <time>2022-08-06T11:34:44Z</time>
      </trkpt>
      <trkpt lat="45.48811" lon="6.38364">
        <ele>2277</ele>
        <time>2022-08-06T11:35:06Z</time>
      </trkpt>
      <trkpt lat="45.48808" lon="6.38358">
        <ele>2279</ele>
        <time>2022-08-06T11:35:17Z</time>
      </trkpt>
      <trkpt lat="45.48804" lon="6.38355">
        <ele>2281</ele>
        <time>2022-08-06T11:35:28Z</time>
      </trkpt>
      <trkpt lat="45.48798" lon="6.38356">
        <ele>2282</ele>
        <time>2022-08-06T11:35:38Z</time>
      </trkpt>
      <trkpt lat="45.48794" lon="6.3835">
        <ele>2286</ele>
        <time>2022-08-06T11:36:13Z</time>
      </trkpt>
      <trkpt lat="45.48793" lon="6.38344">
        <ele>2289</ele>
        <time>2022-08-06T11:36:38Z</time>
      </trkpt>
      <trkpt lat="45.48793" lon="6.38337">
        <ele>2292</ele>
        <time>2022-08-06T11:36:58Z</time>
      </trkpt>
      <trkpt lat="45.48792" lon="6.38331">
        <ele>2294</ele>
        <time>2022-08-06T11:37:19Z</time>
      </trkpt>
      <trkpt lat="45.48786" lon="6.3832">
        <ele>2299</ele>
        <time>2022-08-06T11:37:55Z</time>
      </trkpt>
      <trkpt lat="45.48783" lon="6.38316">
        <ele>2300</ele>
        <time>2022-08-06T11:38:05Z</time>
      </trkpt>
      <trkpt lat="45.48775" lon="6.38304">
        <ele>2305</ele>
        <time>2022-08-06T11:38:50Z</time>
      </trkpt>
      <trkpt lat="45.48776" lon="6.38297">
        <ele>2308</ele>
        <time>2022-08-06T11:39:10Z</time>
      </trkpt>
      <trkpt lat="45.48772" lon="6.38293">
        <ele>2309</ele>
        <time>2022-08-06T11:39:21Z</time>
      </trkpt>
      <trkpt lat="45.48766" lon="6.38288">
        <ele>2310</ele>
        <time>2022-08-06T11:39:33Z</time>
      </trkpt>
      <trkpt lat="45.4877" lon="6.38281">
        <ele>2312</ele>
        <time>2022-08-06T11:39:53Z</time>
      </trkpt>
      <trkpt lat="45.48765" lon="6.38277">
        <ele>2314</ele>
        <time>2022-08-06T11:40:13Z</time>
      </trkpt>
      <trkpt lat="45.48764" lon="6.38271">
        <ele>2318</ele>
        <time>2022-08-06T11:40:43Z</time>
      </trkpt>
      <trkpt lat="45.48759" lon="6.38268">
        <ele>2319</ele>
        <time>2022-08-06T11:40:53Z</time>
      </trkpt>
      <trkpt lat="45.48755" lon="6.38264">
        <ele>2323</ele>
        <time>2022-08-06T11:41:24Z</time>
      </trkpt>
      <trkpt lat="45.4875" lon="6.38261">
        <ele>2328</ele>
        <time>2022-08-06T11:42:06Z</time>
      </trkpt>
      <trkpt lat="45.4875" lon="6.38254">
        <ele>2332</ele>
        <time>2022-08-06T11:42:36Z</time>
      </trkpt>
      <trkpt lat="45.48746" lon="6.38249">
        <ele>2335</ele>
        <time>2022-08-06T11:43:01Z</time>
      </trkpt>
      <trkpt lat="45.48742" lon="6.38249">
        <ele>2339</ele>
        <time>2022-08-06T11:43:32Z</time>
      </trkpt>
      <trkpt lat="45.48737" lon="6.38245">
        <ele>2342</ele>
        <time>2022-08-06T11:44:23Z</time>
      </trkpt>
      <trkpt lat="45.48736" lon="6.3824">
        <ele>2345</ele>
        <time>2022-08-06T11:44:43Z</time>
      </trkpt>
      <trkpt lat="45.48732" lon="6.38235">
        <ele>2347</ele>
        <time>2022-08-06T11:44:58Z</time>
      </trkpt>
      <trkpt lat="45.48728" lon="6.38233">
        <ele>2349</ele>
        <time>2022-08-06T11:45:13Z</time>
      </trkpt>
      <trkpt lat="45.48724" lon="6.38233">
        <ele>2352</ele>
        <time>2022-08-06T11:45:33Z</time>
      </trkpt>
      <trkpt lat="45.4872" lon="6.38231">
        <ele>2352</ele>
        <time>2022-08-06T11:45:46Z</time>
      </trkpt>
      <trkpt lat="45.48718" lon="6.38225">
        <ele>2354</ele>
        <time>2022-08-06T11:46:01Z</time>
      </trkpt>
      <trkpt lat="45.48711" lon="6.3821">
        <ele>2358</ele>
        <time>2022-08-06T11:46:46Z</time>
      </trkpt>
      <trkpt lat="45.48708" lon="6.38205">
        <ele>2356</ele>
        <time>2022-08-06T11:46:57Z</time>
      </trkpt>
      <trkpt lat="45.48705" lon="6.38196">
        <ele>2356</ele>
        <time>2022-08-06T11:47:12Z</time>
      </trkpt>
      <trkpt lat="45.48702" lon="6.38191">
        <ele>2358</ele>
        <time>2022-08-06T11:47:22Z</time>
      </trkpt>
      <trkpt lat="45.48698" lon="6.38188">
        <ele>2358</ele>
        <time>2022-08-06T11:47:37Z</time>
      </trkpt>
      <trkpt lat="45.48694" lon="6.38187">
        <ele>2360</ele>
        <time>2022-08-06T11:48:00Z</time>
      </trkpt>
      <trkpt lat="45.48694" lon="6.38179">
        <ele>2361</ele>
        <time>2022-08-06T11:48:20Z</time>
      </trkpt>
      <trkpt lat="45.48688" lon="6.38168">
        <ele>2365</ele>
        <time>2022-08-06T11:48:50Z</time>
      </trkpt>
      <trkpt lat="45.48687" lon="6.3816">
        <ele>2367</ele>
        <time>2022-08-06T11:49:05Z</time>
      </trkpt>
      <trkpt lat="45.48684" lon="6.38155">
        <ele>2368</ele>
        <time>2022-08-06T11:49:20Z</time>
      </trkpt>
      <trkpt lat="45.48681" lon="6.3815">
        <ele>2369</ele>
        <time>2022-08-06T11:49:30Z</time>
      </trkpt>
      <trkpt lat="45.48677" lon="6.38134">
        <ele>2373</ele>
        <time>2022-08-06T11:50:03Z</time>
      </trkpt>
      <trkpt lat="45.4867" lon="6.38123">
        <ele>2378</ele>
        <time>2022-08-06T11:50:36Z</time>
      </trkpt>
      <trkpt lat="45.4867" lon="6.38114">
        <ele>2383</ele>
        <time>2022-08-06T11:51:46Z</time>
      </trkpt>
      <trkpt lat="45.48662" lon="6.38103">
        <ele>2386</ele>
        <time>2022-08-06T11:52:12Z</time>
      </trkpt>
      <trkpt lat="45.48657" lon="6.38101">
        <ele>2388</ele>
        <time>2022-08-06T11:52:27Z</time>
      </trkpt>
      <trkpt lat="45.48654" lon="6.38095">
        <ele>2390</ele>
        <time>2022-08-06T11:52:42Z</time>
      </trkpt>
      <trkpt lat="45.48652" lon="6.38088">
        <ele>2392</ele>
        <time>2022-08-06T11:53:02Z</time>
      </trkpt>
      <trkpt lat="45.48649" lon="6.38082">
        <ele>2393</ele>
        <time>2022-08-06T11:53:12Z</time>
      </trkpt>
      <trkpt lat="45.48645" lon="6.38079">
        <ele>2395</ele>
        <time>2022-08-06T11:53:27Z</time>
      </trkpt>
      <trkpt lat="45.48642" lon="6.38073">
        <ele>2397</ele>
        <time>2022-08-06T11:53:42Z</time>
      </trkpt>
      <trkpt lat="45.48636" lon="6.3807">
        <ele>2398</ele>
        <time>2022-08-06T11:53:52Z</time>
      </trkpt>
      <trkpt lat="45.48629" lon="6.38066">
        <ele>2398</ele>
        <time>2022-08-06T11:54:03Z</time>
      </trkpt>
      <trkpt lat="45.4861" lon="6.38062">
        <ele>2401</ele>
        <time>2022-08-06T11:54:41Z</time>
      </trkpt>
      <trkpt lat="45.48605" lon="6.38062">
        <ele>2402</ele>
        <time>2022-08-06T11:54:51Z</time>
      </trkpt>
      <trkpt lat="45.486" lon="6.38059">
        <ele>2403</ele>
        <time>2022-08-06T11:55:01Z</time>
      </trkpt>
      <trkpt lat="45.48598" lon="6.38052">
        <ele>2405</ele>
        <time>2022-08-06T11:55:21Z</time>
      </trkpt>
      <trkpt lat="45.48592" lon="6.3805">
        <ele>2407</ele>
        <time>2022-08-06T11:55:36Z</time>
      </trkpt>
      <trkpt lat="45.48587" lon="6.38051">
        <ele>2407</ele>
        <time>2022-08-06T11:55:51Z</time>
      </trkpt>
      <trkpt lat="45.48583" lon="6.38044">
        <ele>2408</ele>
        <time>2022-08-06T11:56:13Z</time>
      </trkpt>
      <trkpt lat="45.48582" lon="6.38038">
        <ele>2409</ele>
        <time>2022-08-06T11:56:25Z</time>
      </trkpt>
      <trkpt lat="45.48576" lon="6.38037">
        <ele>2411</ele>
        <time>2022-08-06T11:56:35Z</time>
      </trkpt>
      <trkpt lat="45.48574" lon="6.3803">
        <ele>2412</ele>
        <time>2022-08-06T11:56:50Z</time>
      </trkpt>
      <trkpt lat="45.4857" lon="6.3803">
        <ele>2415</ele>
        <time>2022-08-06T11:57:10Z</time>
      </trkpt>
      <trkpt lat="45.48566" lon="6.38025">
        <ele>2418</ele>
        <time>2022-08-06T11:57:40Z</time>
      </trkpt>
      <trkpt lat="45.48565" lon="6.38018">
        <ele>2420</ele>
        <time>2022-08-06T11:57:55Z</time>
      </trkpt>
      <trkpt lat="45.48561" lon="6.38016">
        <ele>2420</ele>
        <time>2022-08-06T11:57:59Z</time>
      </trkpt>
      <trkpt lat="45.48559" lon="6.38009">
        <ele>2420</ele>
        <time>2022-08-06T11:58:34Z</time>
      </trkpt>
      <trkpt lat="45.48553" lon="6.38005">
        <ele>2421</ele>
        <time>2022-08-06T11:58:44Z</time>
      </trkpt>
      <trkpt lat="45.48547" lon="6.37997">
        <ele>2424</ele>
        <time>2022-08-06T11:59:09Z</time>
      </trkpt>
      <trkpt lat="45.48547" lon="6.37991">
        <ele>2427</ele>
        <time>2022-08-06T11:59:34Z</time>
      </trkpt>
      <trkpt lat="45.48543" lon="6.37984">
        <ele>2428</ele>
        <time>2022-08-06T11:59:54Z</time>
      </trkpt>
      <trkpt lat="45.48542" lon="6.37976">
        <ele>2429</ele>
        <time>2022-08-06T12:00:14Z</time>
      </trkpt>
      <trkpt lat="45.48538" lon="6.37964">
        <ele>2433</ele>
        <time>2022-08-06T12:00:56Z</time>
      </trkpt>
      <trkpt lat="45.48533" lon="6.37958">
        <ele>2434</ele>
        <time>2022-08-06T12:01:11Z</time>
      </trkpt>
      <trkpt lat="45.48529" lon="6.37954">
        <ele>2435</ele>
        <time>2022-08-06T12:01:26Z</time>
      </trkpt>
      <trkpt lat="45.48527" lon="6.37947">
        <ele>2438</ele>
        <time>2022-08-06T12:01:46Z</time>
      </trkpt>
      <trkpt lat="45.48522" lon="6.37945">
        <ele>2441</ele>
        <time>2022-08-06T12:02:11Z</time>
      </trkpt>
      <trkpt lat="45.48517" lon="6.37946">
        <ele>2443</ele>
        <time>2022-08-06T12:02:33Z</time>
      </trkpt>
      <trkpt lat="45.48509" lon="6.37939">
        <ele>2449</ele>
        <time>2022-08-06T12:03:34Z</time>
      </trkpt>
      <trkpt lat="45.48507" lon="6.37933">
        <ele>2451</ele>
        <time>2022-08-06T12:03:49Z</time>
      </trkpt>
      <trkpt lat="45.48507" lon="6.37927">
        <ele>2455</ele>
        <time>2022-08-06T12:04:19Z</time>
      </trkpt>
      <trkpt lat="45.48504" lon="6.37922">
        <ele>2458</ele>
        <time>2022-08-06T12:04:47Z</time>
      </trkpt>
      <trkpt lat="45.48508" lon="6.37918">
        <ele>2460</ele>
        <time>2022-08-06T12:05:07Z</time>
      </trkpt>
      <trkpt lat="45.48505" lon="6.37913">
        <ele>2462</ele>
        <time>2022-08-06T12:05:22Z</time>
      </trkpt>
      <trkpt lat="45.485" lon="6.37912">
        <ele>2464</ele>
        <time>2022-08-06T12:05:37Z</time>
      </trkpt>
      <trkpt lat="45.48501" lon="6.37904">
        <ele>2467</ele>
        <time>2022-08-06T12:06:12Z</time>
      </trkpt>
      <trkpt lat="45.48506" lon="6.37902">
        <ele>2470</ele>
        <time>2022-08-06T12:06:38Z</time>
      </trkpt>
      <trkpt lat="45.48512" lon="6.3789">
        <ele>2476</ele>
        <time>2022-08-06T12:09:22Z</time>
      </trkpt>
      <trkpt lat="45.48514" lon="6.37883">
        <ele>2476</ele>
        <time>2022-08-06T12:09:37Z</time>
      </trkpt>
      <trkpt lat="45.48518" lon="6.37877">
        <ele>2479</ele>
        <time>2022-08-06T12:10:22Z</time>
      </trkpt>
      <trkpt lat="45.48521" lon="6.3787">
        <ele>2481</ele>
        <time>2022-08-06T12:10:37Z</time>
      </trkpt>
      <trkpt lat="45.48525" lon="6.37866">
        <ele>2483</ele>
        <time>2022-08-06T12:10:48Z</time>
      </trkpt>
      <trkpt lat="45.48528" lon="6.37864">
        <ele>2487</ele>
        <time>2022-08-06T12:11:20Z</time>
      </trkpt>
      <trkpt lat="45.48533" lon="6.37864">
        <ele>2490</ele>
        <time>2022-08-06T12:11:45Z</time>
      </trkpt>
      <trkpt lat="45.48537" lon="6.37863">
        <ele>2494</ele>
        <time>2022-08-06T12:12:05Z</time>
      </trkpt>
      <trkpt lat="45.48539" lon="6.37857">
        <ele>2496</ele>
        <time>2022-08-06T12:12:20Z</time>
      </trkpt>
      <trkpt lat="45.48543" lon="6.37854">
        <ele>2497</ele>
        <time>2022-08-06T12:12:35Z</time>
      </trkpt>
      <trkpt lat="45.48547" lon="6.37849">
        <ele>2499</ele>
        <time>2022-08-06T12:12:50Z</time>
      </trkpt>
      <trkpt lat="45.48552" lon="6.37849">
        <ele>2502</ele>
        <time>2022-08-06T12:13:12Z</time>
      </trkpt>
      <trkpt lat="45.48556" lon="6.37845">
        <ele>2505</ele>
        <time>2022-08-06T12:13:32Z</time>
      </trkpt>
      <trkpt lat="45.48559" lon="6.37839">
        <ele>2507</ele>
        <time>2022-08-06T12:13:52Z</time>
      </trkpt>
      <trkpt lat="45.48563" lon="6.37822">
        <ele>2513</ele>
        <time>2022-08-06T12:14:28Z</time>
      </trkpt>
      <trkpt lat="45.48572" lon="6.37814">
        <ele>2519</ele>
        <time>2022-08-06T12:15:17Z</time>
      </trkpt>
      <trkpt lat="45.48576" lon="6.37809">
        <ele>2521</ele>
        <time>2022-08-06T12:15:32Z</time>
      </trkpt>
      <trkpt lat="45.48578" lon="6.37803">
        <ele>2524</ele>
        <time>2022-08-06T12:15:47Z</time>
      </trkpt>
      <trkpt lat="45.48579" lon="6.37792">
        <ele>2526</ele>
        <time>2022-08-06T12:16:03Z</time>
      </trkpt>
      <trkpt lat="45.48583" lon="6.37787">
        <ele>2530</ele>
        <time>2022-08-06T12:16:24Z</time>
      </trkpt>
      <trkpt lat="45.48584" lon="6.37778">
        <ele>2530</ele>
        <time>2022-08-06T12:16:39Z</time>
      </trkpt>
      <trkpt lat="45.48582" lon="6.37771">
        <ele>2532</ele>
        <time>2022-08-06T12:16:54Z</time>
      </trkpt>
      <trkpt lat="45.48583" lon="6.37762">
        <ele>2534</ele>
        <time>2022-08-06T12:17:23Z</time>
      </trkpt>
      <trkpt lat="45.48581" lon="6.37755">
        <ele>2534</ele>
        <time>2022-08-06T12:17:33Z</time>
      </trkpt>
      <trkpt lat="45.48582" lon="6.37748">
        <ele>2535</ele>
        <time>2022-08-06T12:17:43Z</time>
      </trkpt>
      <trkpt lat="45.48583" lon="6.37741">
        <ele>2538</ele>
        <time>2022-08-06T12:18:03Z</time>
      </trkpt>
      <trkpt lat="45.48586" lon="6.37738">
        <ele>2541</ele>
        <time>2022-08-06T12:18:18Z</time>
      </trkpt>
      <trkpt lat="45.48588" lon="6.3773">
        <ele>2542</ele>
        <time>2022-08-06T12:19:25Z</time>
      </trkpt>
      <trkpt lat="45.48592" lon="6.37728">
        <ele>2545</ele>
        <time>2022-08-06T12:19:55Z</time>
      </trkpt>
      <trkpt lat="45.48597" lon="6.3773">
        <ele>2547</ele>
        <time>2022-08-06T12:20:10Z</time>
      </trkpt>
      <trkpt lat="45.48599" lon="6.37736">
        <ele>2550</ele>
        <time>2022-08-06T12:20:35Z</time>
      </trkpt>
      <trkpt lat="45.48604" lon="6.37738">
        <ele>2553</ele>
        <time>2022-08-06T12:20:55Z</time>
      </trkpt>
      <trkpt lat="45.4861" lon="6.37739">
        <ele>2557</ele>
        <time>2022-08-06T12:21:27Z</time>
      </trkpt>
      <trkpt lat="45.48613" lon="6.37736">
        <ele>2560</ele>
        <time>2022-08-06T12:21:48Z</time>
      </trkpt>
      <trkpt lat="45.48617" lon="6.37732">
        <ele>2564</ele>
        <time>2022-08-06T12:22:33Z</time>
      </trkpt>
      <trkpt lat="45.48621" lon="6.37734">
        <ele>2575</ele>
        <time>2022-08-06T12:23:57Z</time>
      </trkpt>
      <trkpt lat="45.48625" lon="6.37729">
        <ele>2578</ele>
        <time>2022-08-06T12:24:12Z</time>
      </trkpt>
      <trkpt lat="45.48628" lon="6.3772">
        <ele>2581</ele>
        <time>2022-08-06T12:24:32Z</time>
      </trkpt>
      <trkpt lat="45.48633" lon="6.37712">
        <ele>2584</ele>
        <time>2022-08-06T12:24:47Z</time>
      </trkpt>
      <trkpt lat="45.48633" lon="6.37706">
        <ele>2588</ele>
        <time>2022-08-06T12:25:17Z</time>
      </trkpt>
      <trkpt lat="45.48634" lon="6.37699">
        <ele>2592</ele>
        <time>2022-08-06T12:26:05Z</time>
      </trkpt>
      <trkpt lat="45.48637" lon="6.37695">
        <ele>2594</ele>
        <time>2022-08-06T12:26:50Z</time>
      </trkpt>
      <trkpt lat="45.48643" lon="6.37698">
        <ele>2596</ele>
        <time>2022-08-06T12:27:00Z</time>
      </trkpt>
      <trkpt lat="45.48647" lon="6.37701">
        <ele>2600</ele>
        <time>2022-08-06T12:27:25Z</time>
      </trkpt>
      <trkpt lat="45.48652" lon="6.37701">
        <ele>2603</ele>
        <time>2022-08-06T12:27:42Z</time>
      </trkpt>
      <trkpt lat="45.48655" lon="6.37712">
        <ele>2604</ele>
        <time>2022-08-06T12:28:03Z</time>
      </trkpt>
      <trkpt lat="45.48664" lon="6.37717">
        <ele>2609</ele>
        <time>2022-08-06T12:28:38Z</time>
      </trkpt>
      <trkpt lat="45.48668" lon="6.37721">
        <ele>2613</ele>
        <time>2022-08-06T12:29:08Z</time>
      </trkpt>
      <trkpt lat="45.48671" lon="6.37726">
        <ele>2615</ele>
        <time>2022-08-06T12:29:23Z</time>
      </trkpt>
      <trkpt lat="45.48676" lon="6.37725">
        <ele>2616</ele>
        <time>2022-08-06T12:29:49Z</time>
      </trkpt>
      <trkpt lat="45.48679" lon="6.37721">
        <ele>2619</ele>
        <time>2022-08-06T12:30:10Z</time>
      </trkpt>
      <trkpt lat="45.48683" lon="6.37718">
        <ele>2623</ele>
        <time>2022-08-06T12:30:35Z</time>
      </trkpt>
      <trkpt lat="45.48684" lon="6.37711">
        <ele>2626</ele>
        <time>2022-08-06T12:30:55Z</time>
      </trkpt>
      <trkpt lat="45.4869" lon="6.37714">
        <ele>2630</ele>
        <time>2022-08-06T12:31:30Z</time>
      </trkpt>
      <trkpt lat="45.48695" lon="6.37715">
        <ele>2633</ele>
        <time>2022-08-06T12:31:51Z</time>
      </trkpt>
      <trkpt lat="45.48698" lon="6.37719">
        <ele>2634</ele>
        <time>2022-08-06T12:32:18Z</time>
      </trkpt>
      <trkpt lat="45.48702" lon="6.37721">
        <ele>2636</ele>
        <time>2022-08-06T12:32:38Z</time>
      </trkpt>
      <trkpt lat="45.48707" lon="6.37725">
        <ele>2634</ele>
        <time>2022-08-06T12:33:28Z</time>
      </trkpt>
      <trkpt lat="45.4871" lon="6.37722">
        <ele>2631</ele>
        <time>2022-08-06T12:33:54Z</time>
      </trkpt>
      <trkpt lat="45.48715" lon="6.37722">
        <ele>2628</ele>
        <time>2022-08-06T12:34:41Z</time>
      </trkpt>
      <trkpt lat="45.48719" lon="6.37727">
        <ele>2628</ele>
        <time>2022-08-06T12:34:56Z</time>
      </trkpt>
      <trkpt lat="45.48722" lon="6.37732">
        <ele>2628</ele>
        <time>2022-08-06T12:36:43Z</time>
      </trkpt>
    </trkseg>
  </trk>
  <rte>
    <name><![CDATA[4 avr. 2019 à 23:11:12]]></name>
    <cmt><![CDATA[4 avr. 2019 à 23:11:12]]></cmt>
    <desc><![CDATA[{DC1}Heure de fin	: 
Durée totale	: 0h00:00
Moyenne globale	: -
Pente moyenne	: 0.00 %
Aire incluse	: 7.4932 ha
Détails par segments
distance  | durée    | vit.moy. | vit.max. | déniv. + | déniv -
   km     | hh:mn:ss |   km/h   |   km/h   |    m     |    m
     0.81 | 00:00:00 |      0.0 |      0.0 |        0 |        0{DC2}]]></desc>
      <rtept lat="45.60077" lon="6.18221">
        <ele>1608.6</ele>
      </rtept>
      <rtept lat="45.59468" lon="6.1822">
        <ele>1760.9</ele>
      </rtept>
      <rtept lat="45.59468" lon="6.1822">
        <ele>1760.9</ele>
      </rtept>
    </rte>
  <rte>
    <name><![CDATA[10 févr. 2019 à 15:16:12]]></name>
    <cmt><![CDATA[10 févr. 2019 à 15:16:12]]></cmt>
    <desc><![CDATA[{DC1}Heure de fin	: 00:09:21
Durée totale	: -17690439h43:48
Moyenne globale	: -
Pente moyenne	: 7.00 %
Aire incluse	: 221.0936 ha
Détails par segments
distance  | durée    | vit.moy. | vit.max. | déniv. + | déniv -
   km     | hh:mn:ss |   km/h   |   km/h   |    m     |    m
     7.48 | 00:00:00 |      0.0 |      0.0 |        0 |        0{DC2}]]></desc>
      <rtept lat="45.55203" lon="5.93805">
        <ele>376</ele>
      </rtept>
      <rtept lat="45.55177" lon="5.93873">
        <ele>369</ele>
      </rtept>
      <rtept lat="45.55176" lon="5.93942">
        <ele>367</ele>
      </rtept>
      <rtept lat="45.55105" lon="5.93942">
        <ele>367</ele>
      </rtept>
      <rtept lat="45.54993" lon="5.93908">
        <ele>371</ele>
      </rtept>
      <rtept lat="45.54929" lon="5.94099">
        <ele>370</ele>
      </rtept>
      <rtept lat="45.54908" lon="5.94204">
        <ele>367</ele>
      </rtept>
      <rtept lat="45.54991" lon="5.94287">
        <ele>365</ele>
      </rtept>
      <rtept lat="45.5506" lon="5.94384">
        <ele>361</ele>
      </rtept>
      <rtept lat="45.55147" lon="5.94384">
        <ele>357</ele>
      </rtept>
      <rtept lat="45.55129" lon="5.94607">
        <ele>358</ele>
      </rtept>
      <rtept lat="45.55029" lon="5.94809">
        <ele>355</ele>
      </rtept>
      <rtept lat="45.54884" lon="5.94886">
        <ele>346</ele>
      </rtept>
      <rtept lat="45.5477" lon="5.94931">
        <ele>342</ele>
      </rtept>
      <rtept lat="45.5468" lon="5.95004">
        <ele>339</ele>
      </rtept>
      <rtept lat="45.54596" lon="5.95133">
        <ele>340</ele>
      </rtept>
      <rtept lat="45.54446" lon="5.95195">
        <ele>343</ele>
      </rtept>
      <rtept lat="45.543" lon="5.95262">
        <ele>344</ele>
      </rtept>
      <rtept lat="45.54156" lon="5.95212">
        <ele>337</ele>
      </rtept>
      <rtept lat="45.54041" lon="5.95204">
        <ele>338</ele>
      </rtept>
      <rtept lat="45.53917" lon="5.95141">
        <ele>343</ele>
      </rtept>
      <rtept lat="45.53844" lon="5.95135">
        <ele>347</ele>
      </rtept>
      <rtept lat="45.53765" lon="5.9503">
        <ele>349</ele>
      </rtept>
      <rtept lat="45.5381" lon="5.94993">
        <ele>352</ele>
      </rtept>
      <rtept lat="45.53781" lon="5.94901">
        <ele>358</ele>
      </rtept>
      <rtept lat="45.53711" lon="5.94845">
        <ele>365</ele>
      </rtept>
      <rtept lat="45.53702" lon="5.94764">
        <ele>369</ele>
      </rtept>
      <rtept lat="45.53817" lon="5.94807">
        <ele>376</ele>
      </rtept>
      <rtept lat="45.53865" lon="5.94633">
        <ele>389</ele>
      </rtept>
      <rtept lat="45.53778" lon="5.94491">
        <ele>408</ele>
      </rtept>
      <rtept lat="45.53757" lon="5.94371">
        <ele>425</ele>
      </rtept>
      <rtept lat="45.53775" lon="5.94279">
        <ele>434</ele>
      </rtept>
      <rtept lat="45.53726" lon="5.94227">
        <ele>442</ele>
      </rtept>
      <rtept lat="45.53572" lon="5.94146">
        <ele>468</ele>
      </rtept>
      <rtept lat="45.53664" lon="5.94039">
        <ele>483</ele>
      </rtept>
      <rtept lat="45.53532" lon="5.93983">
        <ele>505</ele>
      </rtept>
      <rtept lat="45.53416" lon="5.93985">
        <ele>516</ele>
      </rtept>
      <rtept lat="45.5355" lon="5.93869">
        <ele>532</ele>
      </rtept>
      <rtept lat="45.5359" lon="5.93845">
        <ele>537</ele>
      </rtept>
      <rtept lat="45.5355" lon="5.93802">
        <ele>544</ele>
      </rtept>
      <rtept lat="45.53724" lon="5.93554">
        <ele>587</ele>
      </rtept>
      <rtept lat="45.53691" lon="5.93339">
        <ele>592</ele>
      </rtept>
      <rtept lat="45.5376" lon="5.93178">
        <ele>575</ele>
      </rtept>
      <rtept lat="45.53843" lon="5.93069">
        <ele>555</ele>
      </rtept>
      <rtept lat="45.53939" lon="5.93157">
        <ele>541</ele>
      </rtept>
      <rtept lat="45.54068" lon="5.93234">
        <ele>522</ele>
      </rtept>
      <rtept lat="45.54219" lon="5.93247">
        <ele>514</ele>
      </rtept>
      <rtept lat="45.54355" lon="5.93232">
        <ele>512</ele>
      </rtept>
      <rtept lat="45.54489" lon="5.9326">
        <ele>508</ele>
      </rtept>
      <rtept lat="45.54636" lon="5.93249">
        <ele>510</ele>
      </rtept>
      <rtept lat="45.54758" lon="5.93249">
        <ele>510</ele>
      </rtept>
      <rtept lat="45.54818" lon="5.93298">
        <ele>507</ele>
      </rtept>
      <rtept lat="45.54796" lon="5.93418">
        <ele>496</ele>
      </rtept>
      <rtept lat="45.5491" lon="5.93433">
        <ele>483</ele>
      </rtept>
      <rtept lat="45.55126" lon="5.9341">
        <ele>463</ele>
      </rtept>
      <rtept lat="45.55256" lon="5.93453">
        <ele>444</ele>
      </rtept>
      <rtept lat="45.55329" lon="5.93558">
        <ele>430</ele>
      </rtept>
      <rtept lat="45.55222" lon="5.93642">
        <ele>415</ele>
      </rtept>
      <rtept lat="45.55195" lon="5.93811">
        <ele>375</ele>
      </rtept>
    </rte>
  <rte>
    <name><![CDATA[10 févr. 2019 à 15:15:48]]></name>
    <cmt><![CDATA[10 févr. 2019 à 15:15:48]]></cmt>
    <desc><![CDATA[{DC1}Heure de fin	: 00:09:21
Durée totale	: -17690439h44:12
Moyenne globale	: -
Pente moyenne	: nan %
Aire incluse	: 0.0000 ha
Détails par segments
distance  | durée    | vit.moy. | vit.max. | déniv. + | déniv -
   km     | hh:mn:ss |   km/h   |   km/h   |    m     |    m
     0.00 | 00:00:00 |      0.0 |      0.0 |        0 |        0{DC2}]]></desc>
      <rtept lat="45.5175" lon="5.93483">
        <ele>732.3</ele>
      </rtept>
    </rte>
  <rte>
    <name><![CDATA[10 févr. 2019 à 15:06:08]]></name>
    <cmt><![CDATA[10 févr. 2019 à 15:06:08]]></cmt>
    <desc><![CDATA[{DC1}Heure de fin	: 
Durée totale	: 0h00:00
Moyenne globale	: -
Pente moyenne	: 8.03 %
Aire incluse	: 204.0794 ha
Détails par segments
distance  | durée    | vit.moy. | vit.max. | déniv. + | déniv -
   km     | hh:mn:ss |   km/h   |   km/h   |    m     |    m
    12.88 | 00:00:00 |      0.0 |      0.0 |        0 |        0{DC2}]]></desc>
      <rtept lat="45.5509" lon="5.9394">
        <ele>368</ele>
      </rtept>
      <rtept lat="45.55217" lon="5.93791">
        <ele>377</ele>
      </rtept>
    </rte>
  <rte>
    <name><![CDATA[10 févr. 2019 à 14:22:06]]></name>
    <cmt><![CDATA[10 févr. 2019 à 14:22:06]]></cmt>
    <desc><![CDATA[{DC1}Heure de fin	: 00:09:21
Durée totale	: -17690438h37:54
Moyenne globale	: -
Pente moyenne	: 5.62 %
Aire incluse	: 5.7967 ha
Détails par segments
distance  | durée    | vit.moy. | vit.max. | déniv. + | déniv -
   km     | hh:mn:ss |   km/h   |   km/h   |    m     |    m
     3.30 | 00:00:00 |      0.0 |      0.0 |        0 |        0{DC2}]]></desc>
      <rtept lat="45.55169" lon="5.93089">
        <ele>415</ele>
      </rtept>
      <rtept lat="45.5518" lon="5.93905">
        <ele>366</ele>
      </rtept>
    </rte>
  <rte>
    <name><![CDATA[10 févr. 2019 à 09:50:45]]></name>
    <cmt><![CDATA[10 févr. 2019 à 09:50:45]]></cmt>
    <desc><![CDATA[{DC1}Heure de fin	: 00:09:21
Durée totale	: -17690433h09:14
Moyenne globale	: -
Pente moyenne	: 0.00 %
Aire incluse	: 50.7119 ha
Détails par segments
distance  | durée    | vit.moy. | vit.max. | déniv. + | déniv -
   km     | hh:mn:ss |   km/h   |   km/h   |    m     |    m
     4.33 | 00:00:00 |      0.0 |      0.0 |        0 |        0{DC2}]]></desc>
      <rtept lat="45.5503" lon="5.93918">
        <ele>373.6</ele>
      </rtept>
      <rtept lat="45.55191" lon="5.93893">
        <ele>366.7</ele>
      </rtept>
    </rte>
  <rte>
    <name><![CDATA[10 févr. 2019 à 09:07:08]]></name>
    <cmt><![CDATA[10 févr. 2019 à 09:07:08]]></cmt>
    <desc><![CDATA[{DC1}Heure de fin	: 00:09:21
Durée totale	: -17690433h52:52
Moyenne globale	: -
Pente moyenne	: nan %
Aire incluse	: 0.0000 ha
Détails par segments
distance  | durée    | vit.moy. | vit.max. | déniv. + | déniv -
   km     | hh:mn:ss |   km/h   |   km/h   |    m     |    m
     0.00 | 00:00:00 |      0.0 |      0.0 |        0 |        0{DC2}]]></desc>
      <rtept lat="45.55102" lon="5.93919">
        <ele>370.1</ele>
      </rtept>
    </rte>
  <rte>
    <name><![CDATA[10 févr. 2019 à 09:02:25]]></name>
    <cmt><![CDATA[10 févr. 2019 à 09:02:25]]></cmt>
    <desc><![CDATA[{DC1}Heure de fin	: 00:09:21
Durée totale	: -17690433h57:35
Moyenne globale	: -
Pente moyenne	: nan %
Aire incluse	: 0.0000 ha
Détails par segments
distance  | durée    | vit.moy. | vit.max. | déniv. + | déniv -
   km     | hh:mn:ss |   km/h   |   km/h   |    m     |    m
     0.00 | 00:00:00 |      0.0 |      0.0 |        0 |        0{DC2}]]></desc>
      <rtept lat="45.55207" lon="5.93813">
        <ele>375.2</ele>
      </rtept>
    </rte>
  <rte>
    <name><![CDATA[10 févr. 2019 à 09:00:27]]></name>
    <cmt><![CDATA[10 févr. 2019 à 09:00:27]]></cmt>
    <desc><![CDATA[{DC1}Heure de fin	: 00:09:21
Durée totale	: -17690433h59:32
Moyenne globale	: -
Pente moyenne	: nan %
Aire incluse	: 0.0000 ha
Détails par segments
distance  | durée    | vit.moy. | vit.max. | déniv. + | déniv -
   km     | hh:mn:ss |   km/h   |   km/h   |    m     |    m
     0.00 | 00:00:00 |      0.0 |      0.0 |        0 |        0{DC2}]]></desc>
      <rtept lat="45.55244" lon="5.93858">
        <ele>366.6</ele>
      </rtept>
    </rte>
</gpx>